Observation data for Hackberry on 08/14/2020      Previous  Date       Current Mesonet Observations  Soil Data  Daily Summary Page  Observations in Plain Language
KHA3 140500Z 30005KT 30/13 A2987 RMK A01 T02960125  RH  035%=      5-min Rain = 0
KHA3 140501Z 29006KT 29/12 A2987 RMK A01 T02910124  RH  036%=      5-min Rain = 0
KHA3 140502Z 28006KT 29/12 A2987 RMK A01 T02880124  RH  036%=      5-min Rain = 0
KHA3 140503Z 27007KT 29/13 A2987 RMK A01 T02870125  RH  037%=      5-min Rain = 0
KHA3 140504Z 27006KT 29/13 A2987 RMK A01 T02860125  RH  037%=      5-min Rain = 0
KHA3 140505Z 27007KT 29/13 A2987 RMK A01 T02860125  RH  037%=      5-min Rain = 0
KHA3 140506Z 26007KT 29/13 A2987 RMK A01 T02860125  RH  037%=      5-min Rain = 0
KHA3 140507Z 26007KT 29/13 A2987 RMK A01 T02870125  RH  037%=      5-min Rain = 0
KHA3 140508Z 26007KT 29/13 A2987 RMK A01 T02890125  RH  036%=      5-min Rain = 0
KHA3 140509Z 26007KT 29/13 A2987 RMK A01 T02910125  RH  036%=      5-min Rain = 0
KHA3 140510Z 25007KT 29/13 A2987 RMK A01 T02920125  RH  036%=      5-min Rain = 0
KHA3 140511Z 25007KT 29/12 A2987 RMK A01 T02940124  RH  035%=      5-min Rain = 0
KHA3 140512Z 25007KT 30/12 A2987 RMK A01 T02950124  RH  035%=      5-min Rain = 0
KHA3 140513Z 25007KT 30/12 A2987 RMK A01 T02970124  RH  034%=      5-min Rain = 0
KHA3 140514Z 25008KT 30/12 A2987 RMK A01 T02970123  RH  034%=      5-min Rain = 0
KHA3 140515Z 25007KT 30/12 A2987 RMK A01 T02980123  RH  034%=      5-min Rain = 0
KHA3 140516Z 25007KT 30/12 A2987 RMK A01 T02990123  RH  034%=      5-min Rain = 0
KHA3 140517Z 25008KT 30/12 A2987 RMK A01 T03000123  RH  034%=      5-min Rain = 0
KHA3 140518Z 26008KT 30/12 A2987 RMK A01 T02990124  RH  034%=      5-min Rain = 0
KHA3 140519Z 25008KT 30/12 A2987 RMK A01 T02970123  RH  034%=      5-min Rain = 0
KHA3 140520Z 25008KT 30/12 A2987 RMK A01 T02950123  RH  035%=      5-min Rain = 0
KHA3 140521Z 25008KT 29/12 A2987 RMK A01 T02930122  RH  035%=      5-min Rain = 0
KHA3 140522Z 25007KT 29/12 A2987 RMK A01 T02930122  RH  035%=      5-min Rain = 0
KHA3 140523Z 24007KT 30/12 A2987 RMK A01 T02950122  RH  034%=      5-min Rain = 0
KHA3 140524Z 24007KT 30/12 A2987 RMK A01 T02980122  RH  034%=      5-min Rain = 0
KHA3 140525Z 24007KT 30/12 A2987 RMK A01 T02990121  RH  033%=      5-min Rain = 0
KHA3 140526Z 24008KT 30/12 A2987 RMK A01 T03010122  RH  033%=      5-min Rain = 0
KHA3 140527Z 24008KT 30/12 A2987 RMK A01 T03020122  RH  033%=      5-min Rain = 0
KHA3 140528Z 23007KT 30/12 A2987 RMK A01 T03010122  RH  033%=      5-min Rain = 0
KHA3 140529Z 23007KT 30/12 A2987 RMK A01 T03000121  RH  033%=      5-min Rain = 0
KHA3 140530Z 23007KT 30/12 A2987 RMK A01 T03010122  RH  033%=      5-min Rain = 0
KHA3 140531Z 23007KT 30/12 A2987 RMK A01 T03000123  RH  034%=      5-min Rain = 0
KHA3 140532Z 23007KT 30/12 A2987 RMK A01 T02970123  RH  034%=      5-min Rain = 0
KHA3 140533Z 23008KT 30/12 A2987 RMK A01 T02950123  RH  035%=      5-min Rain = 0
KHA3 140534Z 23008KT 29/12 A2987 RMK A01 T02940123  RH  035%=      5-min Rain = 0
KHA3 140535Z 23008KT 29/12 A2987 RMK A01 T02940123  RH  035%=      5-min Rain = 0
KHA3 140536Z 23008KT 30/12 A2987 RMK A01 T02950122  RH  035%=      5-min Rain = 0
KHA3 140537Z 23008KT 30/12 A2987 RMK A01 T02950123  RH  035%=      5-min Rain = 0
KHA3 140538Z 22007KT 30/12 A2987 RMK A01 T02960123  RH  035%=      5-min Rain = 0
KHA3 140539Z 22008KT 30/12 A2987 RMK A01 T02950124  RH  035%=      5-min Rain = 0
KHA3 140540Z 23008KT 29/12 A2987 RMK A01 T02940123  RH  035%=      5-min Rain = 0
KHA3 140541Z 22008KT 29/12 A2987 RMK A01 T02940123  RH  035%=      5-min Rain = 0
KHA3 140542Z 22008KT 29/12 A2987 RMK A01 T02930123  RH  035%=      5-min Rain = 0
KHA3 140543Z 22008KT 29/12 A2987 RMK A01 T02920123  RH  035%=      5-min Rain = 0
KHA3 140544Z 22008KT 29/12 A2987 RMK A01 T02910123  RH  035%=      5-min Rain = 0
KHA3 140545Z 22008KT 29/12 A2987 RMK A01 T02900123  RH  036%=      5-min Rain = 0
KHA3 140546Z 22008KT 29/12 A2987 RMK A01 T02900122  RH  036%=      5-min Rain = 0
KHA3 140547Z 22008KT 29/12 A2987 RMK A01 T02900122  RH  036%=      5-min Rain = 0
KHA3 140548Z 22008KT 29/12 A2987 RMK A01 T02900123  RH  036%=      5-min Rain = 0
KHA3 140549Z 22009KT 29/12 A2987 RMK A01 T02900123  RH  036%=      5-min Rain = 0
KHA3 140550Z 22009KT 29/12 A2987 RMK A01 T02900123  RH  036%=      5-min Rain = 0
KHA3 140551Z 22009KT 29/12 A2987 RMK A01 T02890122  RH  036%=      5-min Rain = 0
KHA3 140552Z 22009KT 29/12 A2987 RMK A01 T02900122  RH  035%=      5-min Rain = 0
KHA3 140553Z 23009KT 29/12 A2987 RMK A01 T02910122  RH  035%=      5-min Rain = 0
KHA3 140554Z 23009KT 29/12 A2987 RMK A01 T02920121  RH  035%=      5-min Rain = 0
KHA3 140555Z 22009KT 29/12 A2987 RMK A01 T02930122  RH  035%=      5-min Rain = 0
KHA3 140556Z 23009KT 29/12 A2987 RMK A01 T02920123  RH  035%=      5-min Rain = 0
KHA3 140557Z 23010KT 29/12 A2987 RMK A01 T02910122  RH  035%=      5-min Rain = 0
KHA3 140558Z 22009KT 29/12 A2987 RMK A01 T02910122  RH  035%=      5-min Rain = 0
KHA3 140559Z 22009KT 29/12 A2987 RMK A01 T02910122  RH  035%=      5-min Rain = 0
KHA3 140600Z 22009KT 29/12 A2987 RMK A01 T02900122  RH  035%=      5-min Rain = 0
KHA3 140601Z 22009KT 29/12 A2987 RMK A01 T02890122  RH  036%=      5-min Rain = 0
KHA3 140602Z 22009KT 29/12 A2987 RMK A01 T02890122  RH  036%=      5-min Rain = 0
KHA3 140603Z 21009KT 29/12 A2987 RMK A01 T02890123  RH  036%=      5-min Rain = 0
KHA3 140604Z 22010KT 29/12 A2987 RMK A01 T02880122  RH  036%=      5-min Rain = 0
KHA3 140605Z 22010KT 29/12 A2987 RMK A01 T02880122  RH  036%=      5-min Rain = 0
KHA3 140606Z 21010KT 29/12 A2987 RMK A01 T02890122  RH  036%=      5-min Rain = 0
KHA3 140607Z 22010KT 29/12 A2987 RMK A01 T02890121  RH  035%=      5-min Rain = 0
KHA3 140608Z 22010KT 29/12 A2987 RMK A01 T02890121  RH  035%=      5-min Rain = 0
KHA3 140609Z 22010KT 29/12 A2987 RMK A01 T02900121  RH  035%=      5-min Rain = 0
KHA3 140610Z 22010KT 29/12 A2987 RMK A01 T02900121  RH  035%=      5-min Rain = 0
KHA3 140611Z 21010KT 29/12 A2987 RMK A01 T02900121  RH  035%=      5-min Rain = 0
KHA3 140612Z 21010KT 29/12 A2987 RMK A01 T02900121  RH  035%=      5-min Rain = 0
KHA3 140613Z 21010KT 29/12 A2987 RMK A01 T02910121  RH  035%=      5-min Rain = 0
KHA3 140614Z 21010KT 29/12 A2987 RMK A01 T02910121  RH  035%=      5-min Rain = 0
KHA3 140615Z 21010KT 29/12 A2987 RMK A01 T02910121  RH  035%=      5-min Rain = 0
KHA3 140616Z 21010KT 29/12 A2987 RMK A01 T02910121  RH  035%=      5-min Rain = 0
KHA3 140617Z 21010KT 29/12 A2986 RMK A01 T02910121  RH  035%=      5-min Rain = 0
KHA3 140618Z 21010KT 29/12 A2986 RMK A01 T02910121  RH  035%=      5-min Rain = 0
KHA3 140619Z 21010KT 29/12 A2986 RMK A01 T02920121  RH  035%=      5-min Rain = 0
KHA3 140620Z 21011KT 29/12 A2986 RMK A01 T02930121  RH  035%=      5-min Rain = 0
KHA3 140621Z 21011KT 29/12 A2986 RMK A01 T02940120  RH  034%=      5-min Rain = 0
KHA3 140622Z 21010KT 30/12 A2986 RMK A01 T02950120  RH  034%=      5-min Rain = 0
KHA3 140623Z 21011KT 30/12 A2986 RMK A01 T02960120  RH  034%=      5-min Rain = 0
KHA3 140624Z 21011KT 30/12 A2986 RMK A01 T02970120  RH  034%=      5-min Rain = 0
KHA3 140625Z 22011KT 30/12 A2986 RMK A01 T02960120  RH  034%=      5-min Rain = 0
KHA3 140626Z 21011KT 30/12 A2986 RMK A01 T02970121  RH  034%=      5-min Rain = 0
KHA3 140627Z 21010KT 30/12 A2986 RMK A01 T02970121  RH  034%=      5-min Rain = 0
KHA3 140628Z 21011KT 30/12 A2986 RMK A01 T02960120  RH  034%=      5-min Rain = 0
KHA3 140629Z 21011KT 30/12 A2986 RMK A01 T02970121  RH  034%=      5-min Rain = 0
KHA3 140630Z 21011KT 30/12 A2986 RMK A01 T02960121  RH  034%=      5-min Rain = 0
KHA3 140631Z 22011KT 30/12 A2986 RMK A01 T02960120  RH  034%=      5-min Rain = 0
KHA3 140632Z 21011KT 30/12 A2986 RMK A01 T02960121  RH  034%=      5-min Rain = 0
KHA3 140633Z 21011KT 30/12 A2986 RMK A01 T02960121  RH  034%=      5-min Rain = 0
KHA3 140634Z 21011KT 30/12 A2986 RMK A01 T02960120  RH  034%=      5-min Rain = 0
KHA3 140635Z 21011KT 30/12 A2986 RMK A01 T02970120  RH  034%=      5-min Rain = 0
KHA3 140636Z 21011KT 30/12 A2986 RMK A01 T02970120  RH  034%=      5-min Rain = 0
KHA3 140637Z 21011KT 30/12 A2986 RMK A01 T02980120  RH  034%=      5-min Rain = 0
KHA3 140638Z 21011KT 30/12 A2986 RMK A01 T02980120  RH  033%=      5-min Rain = 0
KHA3 140639Z 21011KT 30/12 A2986 RMK A01 T02990120  RH  033%=      5-min Rain = 0
KHA3 140640Z 21011KT 30/12 A2986 RMK A01 T02990120  RH  033%=      5-min Rain = 0
KHA3 140641Z 21011KT 30/12 A2986 RMK A01 T02990121  RH  033%=      5-min Rain = 0
KHA3 140642Z 21012KT 30/12 A2986 RMK A01 T02990120  RH  033%=      5-min Rain = 0
KHA3 140643Z 21011KT 30/12 A2986 RMK A01 T02990120  RH  033%=      5-min Rain = 0
KHA3 140644Z 21012KT 30/12 A2986 RMK A01 T02990120  RH  033%=      5-min Rain = 0
KHA3 140645Z 21012KT 30/12 A2986 RMK A01 T02990120  RH  033%=      5-min Rain = 0
KHA3 140646Z 21012KT 30/12 A2986 RMK A01 T02990120  RH  033%=      5-min Rain = 0
KHA3 140647Z 21012KT 30/12 A2986 RMK A01 T02990120  RH  033%=      5-min Rain = 0
KHA3 140648Z 21012KT 30/12 A2986 RMK A01 T02990120  RH  033%=      5-min Rain = 0
KHA3 140649Z 21012KT 30/12 A2986 RMK A01 T03000120  RH  033%=      5-min Rain = 0
KHA3 140650Z 21012KT 30/12 A2986 RMK A01 T03000120  RH  033%=      5-min Rain = 0
KHA3 140651Z 21012KT 30/12 A2986 RMK A01 T03000120  RH  033%=      5-min Rain = 0
KHA3 140652Z 21012KT 30/12 A2986 RMK A01 T03000120  RH  033%=      5-min Rain = 0
KHA3 140653Z 21013KT 30/12 A2986 RMK A01 T03010121  RH  033%=      5-min Rain = 0
KHA3 140654Z 21014KT 30/12 A2986 RMK A01 T03010120  RH  033%=      5-min Rain = 0
KHA3 140655Z 21013KT 30/12 A2986 RMK A01 T03010120  RH  033%=      5-min Rain = 0
KHA3 140656Z 21013KT 30/12 A2986 RMK A01 T03030120  RH  032%=      5-min Rain = 0
KHA3 140657Z 21013KT 30/12 A2986 RMK A01 T03040120  RH  032%=      5-min Rain = 0
KHA3 140658Z 21013KT 31/12 A2985 RMK A01 T03050120  RH  032%=      5-min Rain = 0
KHA3 140659Z 21013KT 31/12 A2985 RMK A01 T03060120  RH  032%=      5-min Rain = 0
KHA3 140700Z 21013KT 31/12 A2985 RMK A01 T03060120  RH  032%=      5-min Rain = 0
KHA3 140701Z 21014KT 31/12 A2985 RMK A01 T03070120  RH  032%=      5-min Rain = 0
KHA3 140702Z 21013KT 31/12 A2985 RMK A01 T03070120  RH  032%=      5-min Rain = 0
KHA3 140703Z 21013KT 31/12 A2985 RMK A01 T03070120  RH  032%=      5-min Rain = 0
KHA3 140704Z 21013KT 31/12 A2985 RMK A01 T03070120  RH  032%=      5-min Rain = 0
KHA3 140705Z 21013KT 31/12 A2985 RMK A01 T03070120  RH  032%=      5-min Rain = 0
KHA3 140706Z 21014KT 31/12 A2985 RMK A01 T03070120  RH  032%=      5-min Rain = 0
KHA3 140707Z 21013KT 31/12 A2985 RMK A01 T03070120  RH  032%=      5-min Rain = 0
KHA3 140708Z 21013KT 31/12 A2985 RMK A01 T03070120  RH  032%=      5-min Rain = 0
KHA3 140709Z 21014KT 31/12 A2985 RMK A01 T03070120  RH  032%=      5-min Rain = 0
KHA3 140710Z 21013KT 31/12 A2985 RMK A01 T03070120  RH  032%=      5-min Rain = 0
KHA3 140711Z 21013KT 31/12 A2986 RMK A01 T03080120  RH  032%=      5-min Rain = 0
KHA3 140712Z 21013KT 31/12 A2985 RMK A01 T03070120  RH  032%=      5-min Rain = 0
KHA3 140713Z 21013KT 31/12 A2986 RMK A01 T03070120  RH  032%=      5-min Rain = 0
KHA3 140714Z 21013KT 31/12 A2986 RMK A01 T03070120  RH  032%=      5-min Rain = 0
KHA3 140715Z 21013KT 31/12 A2986 RMK A01 T03080120  RH  032%=      5-min Rain = 0
KHA3 140716Z 21013KT 31/12 A2986 RMK A01 T03080120  RH  032%=      5-min Rain = 0
KHA3 140717Z 21012KT 31/12 A2986 RMK A01 T03080120  RH  032%=      5-min Rain = 0
KHA3 140718Z 21013KT 31/12 A2986 RMK A01 T03070120  RH  032%=      5-min Rain = 0
KHA3 140719Z 21013KT 31/12 A2986 RMK A01 T03070120  RH  032%=      5-min Rain = 0
KHA3 140720Z 21012KT 31/12 A2986 RMK A01 T03070120  RH  032%=      5-min Rain = 0
KHA3 140721Z 22012KT 31/12 A2986 RMK A01 T03070120  RH  032%=      5-min Rain = 0
KHA3 140722Z 22013KT 31/12 A2986 RMK A01 T03080120  RH  032%=      5-min Rain = 0
KHA3 140723Z 22012KT 31/12 A2986 RMK A01 T03070120  RH  032%=      5-min Rain = 0
KHA3 140724Z 22012KT 31/12 A2986 RMK A01 T03080120  RH  031%=      5-min Rain = 0
KHA3 140725Z 22011KT 31/12 A2986 RMK A01 T03090120  RH  031%=      5-min Rain = 0
KHA3 140726Z 22011KT 31/12 A2986 RMK A01 T03090120  RH  031%=      5-min Rain = 0
KHA3 140727Z 23011KT 31/12 A2986 RMK A01 T03090120  RH  031%=      5-min Rain = 0
KHA3 140728Z 25008KT 31/12 A2986 RMK A01 T03100119  RH  031%=      5-min Rain = 0
KHA3 140729Z 29007KT 31/12 A2987 RMK A01 T03090120  RH  031%=      5-min Rain = 0
KHA3 140730Z 29007KT 31/12 A2987 RMK A01 T03070121  RH  032%=      5-min Rain = 0
KHA3 140731Z 28007KT 30/12 A2987 RMK A01 T03030120  RH  032%=      5-min Rain = 0
KHA3 140732Z 27007KT 30/12 A2987 RMK A01 T03030121  RH  033%=      5-min Rain = 0
KHA3 140733Z 29007KT 30/12 A2987 RMK A01 T03020121  RH  033%=      5-min Rain = 0
KHA3 140734Z 28008KT 30/12 A2987 RMK A01 T03020121  RH  033%=      5-min Rain = 0
KHA3 140735Z 28007KT 30/12 A2987 RMK A01 T03020121  RH  033%=      5-min Rain = 0
KHA3 140736Z 27008KT 30/12 A2987 RMK A01 T03020121  RH  033%=      5-min Rain = 0
KHA3 140737Z 27008KT 30/12 A2987 RMK A01 T03020121  RH  033%=      5-min Rain = 0
KHA3 140738Z 28007KT 30/12 A2987 RMK A01 T03020121  RH  033%=      5-min Rain = 0
KHA3 140739Z 28006KT 30/12 A2987 RMK A01 T03000121  RH  033%=      5-min Rain = 0
KHA3 140740Z 28007KT 30/12 A2987 RMK A01 T02980121  RH  034%=      5-min Rain = 0
KHA3 140741Z 27007KT 30/12 A2987 RMK A01 T02970121  RH  034%=      5-min Rain = 0
KHA3 140742Z 27007KT 30/12 A2987 RMK A01 T02970121  RH  034%=      5-min Rain = 0
KHA3 140743Z 26006KT 30/12 A2987 RMK A01 T02970121  RH  034%=      5-min Rain = 0
KHA3 140744Z 27006KT 30/12 A2987 RMK A01 T02970121  RH  034%=      5-min Rain = 0
KHA3 140745Z 27005KT 30/12 A2987 RMK A01 T02960121  RH  034%=      5-min Rain = 0
KHA3 140746Z 27006KT 30/12 A2987 RMK A01 T02950121  RH  034%=      5-min Rain = 0
KHA3 140747Z 27007KT 29/12 A2987 RMK A01 T02940121  RH  035%=      5-min Rain = 0
KHA3 140748Z 27007KT 29/12 A2987 RMK A01 T02920121  RH  035%=      5-min Rain = 0
KHA3 140749Z 27007KT 29/12 A2987 RMK A01 T02910122  RH  035%=      5-min Rain = 0
KHA3 140750Z 27007KT 29/12 A2987 RMK A01 T02900122  RH  035%=      5-min Rain = 0
KHA3 140751Z 26007KT 29/12 A2986 RMK A01 T02890122  RH  036%=      5-min Rain = 0
KHA3 140752Z 26006KT 29/12 A2986 RMK A01 T02890122  RH  036%=      5-min Rain = 0
KHA3 140753Z 25006KT 29/12 A2986 RMK A01 T02890122  RH  036%=      5-min Rain = 0
KHA3 140754Z 25006KT 29/12 A2986 RMK A01 T02890121  RH  036%=      5-min Rain = 0
KHA3 140755Z 25006KT 29/12 A2986 RMK A01 T02890121  RH  035%=      5-min Rain = 0
KHA3 140756Z 25006KT 29/12 A2986 RMK A01 T02900121  RH  035%=      5-min Rain = 0
KHA3 140757Z 24006KT 29/12 A2986 RMK A01 T02910121  RH  035%=      5-min Rain = 0
KHA3 140758Z 24007KT 29/12 A2986 RMK A01 T02900121  RH  035%=      5-min Rain = 0
KHA3 140759Z 24007KT 29/12 A2986 RMK A01 T02890122  RH  036%=      5-min Rain = 0
KHA3 140800Z 23007KT 29/12 A2986 RMK A01 T02880122  RH  036%=      5-min Rain = 0
KHA3 140801Z 22006KT 29/12 A2986 RMK A01 T02870122  RH  036%=      5-min Rain = 0
KHA3 140802Z 22006KT 29/12 A2986 RMK A01 T02850123  RH  037%=      5-min Rain = 0
KHA3 140803Z 22006KT 28/12 A2986 RMK A01 T02810123  RH  038%=      5-min Rain = 0
KHA3 140804Z 21006KT 28/12 A2986 RMK A01 T02770123  RH  038%=      5-min Rain = 0
KHA3 140805Z 21007KT 27/12 A2986 RMK A01 T02740123  RH  039%=      5-min Rain = 0
KHA3 140806Z 21007KT 27/12 A2986 RMK A01 T02720122  RH  039%=      5-min Rain = 0
KHA3 140807Z 22007KT 27/12 A2986 RMK A01 T02720123  RH  040%=      5-min Rain = 0
KHA3 140808Z 22007KT 27/12 A2986 RMK A01 T02710122  RH  040%=      5-min Rain = 0
KHA3 140809Z 22007KT 27/12 A2986 RMK A01 T02700122  RH  040%=      5-min Rain = 0
KHA3 140810Z 22008KT 27/12 A2986 RMK A01 T02700122  RH  040%=      5-min Rain = 0
KHA3 140811Z 22008KT 27/12 A2986 RMK A01 T02710122  RH  040%=      5-min Rain = 0
KHA3 140812Z 23009KT 27/12 A2986 RMK A01 T02720122  RH  039%=      5-min Rain = 0
KHA3 140813Z 23009KT 27/12 A2986 RMK A01 T02740122  RH  039%=      5-min Rain = 0
KHA3 140814Z 22009KT 28/12 A2987 RMK A01 T02780121  RH  038%=      5-min Rain = 0
KHA3 140815Z 23009KT 28/12 A2987 RMK A01 T02820122  RH  037%=      5-min Rain = 0
KHA3 140816Z 23010KT 28/12 A2987 RMK A01 T02840121  RH  037%=      5-min Rain = 0
KHA3 140817Z 23009KT 29/12 A2987 RMK A01 T02850121  RH  036%=      5-min Rain = 0
KHA3 140818Z 23010KT 29/12 A2987 RMK A01 T02860121  RH  036%=      5-min Rain = 0
KHA3 140819Z 23009KT 29/12 A2987 RMK A01 T02870121  RH  036%=      5-min Rain = 0
KHA3 140820Z 23009KT 29/12 A2987 RMK A01 T02880121  RH  036%=      5-min Rain = 0
KHA3 140821Z 23009KT 29/12 A2987 RMK A01 T02890120  RH  035%=      5-min Rain = 0
KHA3 140822Z 23009KT 29/12 A2987 RMK A01 T02900120  RH  035%=      5-min Rain = 0
KHA3 140823Z 23009KT 29/12 A2987 RMK A01 T02910120  RH  035%=      5-min Rain = 0
KHA3 140824Z 23009KT 29/12 A2987 RMK A01 T02920120  RH  035%=      5-min Rain = 0
KHA3 140825Z 23009KT 29/12 A2987 RMK A01 T02920120  RH  035%=      5-min Rain = 0
KHA3 140826Z 23009KT 29/12 A2987 RMK A01 T02930120  RH  034%=      5-min Rain = 0
KHA3 140827Z 23009KT 29/12 A2987 RMK A01 T02930120  RH  034%=      5-min Rain = 0
KHA3 140828Z 23009KT 29/12 A2987 RMK A01 T02940120  RH  034%=      5-min Rain = 0
KHA3 140829Z 23009KT 29/12 A2987 RMK A01 T02940120  RH  034%=      5-min Rain = 0
KHA3 140830Z 23010KT 29/12 A2987 RMK A01 T02940120  RH  034%=      5-min Rain = 0
KHA3 140831Z 23009KT 29/12 A2987 RMK A01 T02940120  RH  034%=      5-min Rain = 0
KHA3 140832Z 24010KT 29/12 A2987 RMK A01 T02940120  RH  034%=      5-min Rain = 0
KHA3 140833Z 24010KT 29/12 A2987 RMK A01 T02940120  RH  034%=      5-min Rain = 0
KHA3 140834Z 24010KT 30/12 A2987 RMK A01 T02950120  RH  034%=      5-min Rain = 0
KHA3 140835Z 24011KT 30/12 A2987 RMK A01 T02960119  RH  034%=      5-min Rain = 0
KHA3 140836Z 24010KT 30/12 A2987 RMK A01 T02970120  RH  034%=      5-min Rain = 0
KHA3 140837Z 23010KT 30/12 A2987 RMK A01 T02970119  RH  034%=      5-min Rain = 0
KHA3 140838Z 23010KT 30/12 A2987 RMK A01 T02970120  RH  034%=      5-min Rain = 0
KHA3 140839Z 24011KT 30/12 A2987 RMK A01 T02970119  RH  033%=      5-min Rain = 0
KHA3 140840Z 24010KT 30/12 A2987 RMK A01 T02970120  RH  034%=      5-min Rain = 0
KHA3 140841Z 24011KT 30/12 A2986 RMK A01 T02970119  RH  033%=      5-min Rain = 0
KHA3 140842Z 24011KT 30/12 A2986 RMK A01 T02970119  RH  033%=      5-min Rain = 0
KHA3 140843Z 24011KT 30/12 A2986 RMK A01 T02970118  RH  033%=      5-min Rain = 0
KHA3 140844Z 24010KT 30/12 A2986 RMK A01 T02990119  RH  033%=      5-min Rain = 0
KHA3 140845Z 24011KT 30/12 A2986 RMK A01 T03000119  RH  033%=      5-min Rain = 0
KHA3 140846Z 24011KT 30/12 A2986 RMK A01 T03010118  RH  033%=      5-min Rain = 0
KHA3 140847Z 24011KT 30/12 A2986 RMK A01 T03010118  RH  032%=      5-min Rain = 0
KHA3 140848Z 24011KT 30/12 A2986 RMK A01 T03010118  RH  032%=      5-min Rain = 0
KHA3 140849Z 24011KT 30/12 A2986 RMK A01 T03010118  RH  032%=      5-min Rain = 0
KHA3 140850Z 24011KT 30/12 A2986 RMK A01 T03020118  RH  032%=      5-min Rain = 0
KHA3 140851Z 24010KT 30/12 A2986 RMK A01 T03020118  RH  032%=      5-min Rain = 0
KHA3 140852Z 24010KT 30/12 A2986 RMK A01 T03010118  RH  032%=      5-min Rain = 0
KHA3 140853Z 24010KT 30/12 A2986 RMK A01 T03010118  RH  032%=      5-min Rain = 0
KHA3 140854Z 24011KT 30/12 A2986 RMK A01 T03010118  RH  032%=      5-min Rain = 0
KHA3 140855Z 24010KT 30/12 A2986 RMK A01 T03010118  RH  032%=      5-min Rain = 0
KHA3 140856Z 24010KT 30/12 A2986 RMK A01 T03010117  RH  032%=      5-min Rain = 0
KHA3 140857Z 24010KT 30/12 A2986 RMK A01 T03010117  RH  032%=      5-min Rain = 0
KHA3 140858Z 24011KT 30/12 A2986 RMK A01 T03010116  RH  032%=      5-min Rain = 0
KHA3 140859Z 24011KT 30/12 A2986 RMK A01 T03020116  RH  032%=      5-min Rain = 0
KHA3 140900Z 24011KT 30/12 A2986 RMK A01 T03030116  RH  032%=      5-min Rain = 0
KHA3 140901Z 24012KT 30/12 A2986 RMK A01 T03040116  RH  031%=      5-min Rain = 0
KHA3 140902Z 24012KT 31/12 A2986 RMK A01 T03050116  RH  031%=      5-min Rain = 0
KHA3 140903Z 25011KT 31/12 A2986 RMK A01 T03060116  RH  031%=      5-min Rain = 0
KHA3 140904Z 24013KT 31/12 A2986 RMK A01 T03060116  RH  031%=      5-min Rain = 0
KHA3 140905Z 25012KT 31/12 A2986 RMK A01 T03070117  RH  031%=      5-min Rain = 0
KHA3 140906Z 25012KT 31/12 A2986 RMK A01 T03080117  RH  031%=      5-min Rain = 0
KHA3 140907Z 24012KT 31/12 A2986 RMK A01 T03080117  RH  031%=      5-min Rain = 0
KHA3 140908Z 25012KT 31/12 A2986 RMK A01 T03090118  RH  031%=      5-min Rain = 0
KHA3 140909Z 25011KT 31/12 A2986 RMK A01 T03090118  RH  031%=      5-min Rain = 0
KHA3 140910Z 25011KT 31/12 A2987 RMK A01 T03090118  RH  031%=      5-min Rain = 0
KHA3 140911Z 25011KT 31/12 A2987 RMK A01 T03080118  RH  031%=      5-min Rain = 0
KHA3 140912Z 25012KT 31/12 A2987 RMK A01 T03070118  RH  031%=      5-min Rain = 0
KHA3 140913Z 25010KT 31/12 A2987 RMK A01 T03070119  RH  031%=      5-min Rain = 0
KHA3 140914Z 25011KT 31/12 A2987 RMK A01 T03070119  RH  031%=      5-min Rain = 0
KHA3 140915Z 25010KT 31/12 A2987 RMK A01 T03060119  RH  032%=      5-min Rain = 0
KHA3 140916Z 25010KT 31/12 A2987 RMK A01 T03050119  RH  032%=      5-min Rain = 0
KHA3 140917Z 25010KT 30/12 A2987 RMK A01 T03040119  RH  032%=      5-min Rain = 0
KHA3 140918Z 25010KT 30/12 A2987 RMK A01 T03040119  RH  032%=      5-min Rain = 0
KHA3 140919Z 25010KT 30/12 A2987 RMK A01 T03030119  RH  032%=      5-min Rain = 0
KHA3 140920Z 25009KT 30/12 A2987 RMK A01 T03030119  RH  032%=      5-min Rain = 0
KHA3 140921Z 25009KT 30/12 A2987 RMK A01 T03020119  RH  032%=      5-min Rain = 0
KHA3 140922Z 25008KT 30/12 A2987 RMK A01 T03010119  RH  032%=      5-min Rain = 0
KHA3 140923Z 25009KT 30/12 A2987 RMK A01 T03010119  RH  033%=      5-min Rain = 0
KHA3 140924Z 24008KT 30/12 A2987 RMK A01 T03010119  RH  033%=      5-min Rain = 0
KHA3 140925Z 25008KT 30/12 A2987 RMK A01 T03010119  RH  033%=      5-min Rain = 0
KHA3 140926Z 25008KT 30/12 A2987 RMK A01 T03010119  RH  033%=      5-min Rain = 0
KHA3 140927Z 24008KT 30/12 A2987 RMK A01 T03010118  RH  032%=      5-min Rain = 0
KHA3 140928Z 24009KT 30/12 A2987 RMK A01 T03010118  RH  032%=      5-min Rain = 0
KHA3 140929Z 24009KT 30/12 A2987 RMK A01 T03020118  RH  032%=      5-min Rain = 0
KHA3 140930Z 24009KT 30/12 A2987 RMK A01 T03020118  RH  032%=      5-min Rain = 0
KHA3 140931Z 24009KT 30/12 A2987 RMK A01 T03020119  RH  032%=      5-min Rain = 0
KHA3 140932Z 23009KT 30/12 A2987 RMK A01 T03000119  RH  033%=      5-min Rain = 0
KHA3 140933Z 23009KT 30/12 A2987 RMK A01 T02990118  RH  033%=      5-min Rain = 0
KHA3 140934Z 23009KT 30/12 A2987 RMK A01 T02980118  RH  033%=      5-min Rain = 0
KHA3 140935Z 23009KT 30/12 A2987 RMK A01 T02970119  RH  033%=      5-min Rain = 0
KHA3 140936Z 22009KT 30/12 A2987 RMK A01 T02970120  RH  034%=      5-min Rain = 0
KHA3 140937Z 22009KT 29/12 A2987 RMK A01 T02940120  RH  034%=      5-min Rain = 0
KHA3 140938Z 22010KT 29/12 A2987 RMK A01 T02910120  RH  035%=      5-min Rain = 0
KHA3 140939Z 23009KT 29/12 A2987 RMK A01 T02890119  RH  035%=      5-min Rain = 0
KHA3 140940Z 23008KT 29/12 A2986 RMK A01 T02880119  RH  035%=      5-min Rain = 0
KHA3 140941Z 23008KT 29/12 A2986 RMK A01 T02880119  RH  035%=      5-min Rain = 0
KHA3 140942Z 23008KT 29/12 A2986 RMK A01 T02880119  RH  035%=      5-min Rain = 0
KHA3 140943Z 23008KT 29/12 A2986 RMK A01 T02890120  RH  035%=      5-min Rain = 0
KHA3 140944Z 23008KT 29/12 A2986 RMK A01 T02870119  RH  035%=      5-min Rain = 0
KHA3 140945Z 22007KT 29/12 A2986 RMK A01 T02860119  RH  036%=      5-min Rain = 0
KHA3 140946Z 22007KT 29/12 A2986 RMK A01 T02860119  RH  036%=      5-min Rain = 0
KHA3 140947Z 23006KT 29/12 A2986 RMK A01 T02850119  RH  036%=      5-min Rain = 0
KHA3 140948Z 23005KT 28/12 A2986 RMK A01 T02830119  RH  036%=      5-min Rain = 0
KHA3 140949Z 23005KT 28/12 A2986 RMK A01 T02820119  RH  036%=      5-min Rain = 0
KHA3 140950Z 24004KT 28/12 A2987 RMK A01 T02810120  RH  037%=      5-min Rain = 0
KHA3 140951Z 24003KT 28/12 A2987 RMK A01 T02790119  RH  037%=      5-min Rain = 0
KHA3 140952Z 25003KT 28/12 A2987 RMK A01 T02780119  RH  037%=      5-min Rain = 0
KHA3 140953Z 24004KT 28/12 A2986 RMK A01 T02780119  RH  037%=      5-min Rain = 0
KHA3 140954Z 23005KT 28/12 A2986 RMK A01 T02770119  RH  038%=      5-min Rain = 0
KHA3 140955Z 23005KT 28/12 A2986 RMK A01 T02770119  RH  037%=      5-min Rain = 0
KHA3 140956Z 23005KT 28/12 A2986 RMK A01 T02770119  RH  038%=      5-min Rain = 0
KHA3 140957Z 23005KT 28/12 A2986 RMK A01 T02770119  RH  038%=      5-min Rain = 0
KHA3 140958Z 23005KT 28/12 A2986 RMK A01 T02760119  RH  038%=      5-min Rain = 0
KHA3 140959Z 23005KT 28/12 A2986 RMK A01 T02770119  RH  038%=      5-min Rain = 0
KHA3 141000Z 23005KT 28/12 A2986 RMK A01 T02760119  RH  038%=      5-min Rain = 0
KHA3 141001Z 23006KT 28/12 A2986 RMK A01 T02760119  RH  038%=      5-min Rain = 0
KHA3 141002Z 23005KT 28/12 A2986 RMK A01 T02750119  RH  038%=      5-min Rain = 0
KHA3 141003Z 23005KT 28/12 A2987 RMK A01 T02750118  RH  038%=      5-min Rain = 0
KHA3 141004Z 23005KT 28/12 A2987 RMK A01 T02760119  RH  038%=      5-min Rain = 0
KHA3 141005Z 22005KT 28/12 A2987 RMK A01 T02760119  RH  038%=      5-min Rain = 0
KHA3 141006Z 22005KT 28/12 A2987 RMK A01 T02750119  RH  038%=      5-min Rain = 0
KHA3 141007Z 22005KT 27/12 A2987 RMK A01 T02740119  RH  038%=      5-min Rain = 0
KHA3 141008Z 22005KT 27/12 A2987 RMK A01 T02730119  RH  038%=      5-min Rain = 0
KHA3 141009Z 22005KT 27/12 A2987 RMK A01 T02720119  RH  038%=      5-min Rain = 0
KHA3 141010Z 22006KT 27/12 A2987 RMK A01 T02710119  RH  039%=      5-min Rain = 0
KHA3 141011Z 22006KT 27/12 A2987 RMK A01 T02700119  RH  039%=      5-min Rain = 0
KHA3 141012Z 22006KT 27/12 A2986 RMK A01 T02690119  RH  039%=      5-min Rain = 0
KHA3 141013Z 22006KT 27/12 A2986 RMK A01 T02690119  RH  039%=      5-min Rain = 0
KHA3 141014Z 23006KT 27/12 A2987 RMK A01 T02680119  RH  039%=      5-min Rain = 0
KHA3 141015Z 23006KT 27/12 A2987 RMK A01 T02680119  RH  039%=      5-min Rain = 0
KHA3 141016Z 23006KT 27/12 A2987 RMK A01 T02690119  RH  039%=      5-min Rain = 0
KHA3 141017Z 23006KT 27/12 A2987 RMK A01 T02700118  RH  039%=      5-min Rain = 0
KHA3 141018Z 23006KT 27/12 A2987 RMK A01 T02710118  RH  039%=      5-min Rain = 0
KHA3 141019Z 23005KT 27/12 A2987 RMK A01 T02720119  RH  039%=      5-min Rain = 0
KHA3 141020Z 23005KT 27/12 A2987 RMK A01 T02710119  RH  039%=      5-min Rain = 0
KHA3 141021Z 23005KT 27/12 A2987 RMK A01 T02710119  RH  039%=      5-min Rain = 0
KHA3 141022Z 23006KT 27/12 A2987 RMK A01 T02710119  RH  039%=      5-min Rain = 0
KHA3 141023Z 23005KT 27/12 A2987 RMK A01 T02700119  RH  039%=      5-min Rain = 0
KHA3 141024Z 22005KT 27/12 A2987 RMK A01 T02690119  RH  039%=      5-min Rain = 0
KHA3 141025Z 22005KT 27/12 A2987 RMK A01 T02690119  RH  039%=      5-min Rain = 0
KHA3 141026Z 23005KT 27/12 A2987 RMK A01 T02680119  RH  039%=      5-min Rain = 0
KHA3 141027Z 23004KT 27/12 A2987 RMK A01 T02680119  RH  040%=      5-min Rain = 0
KHA3 141028Z 22004KT 27/12 A2987 RMK A01 T02680119  RH  040%=      5-min Rain = 0
KHA3 141029Z 22004KT 27/12 A2987 RMK A01 T02680118  RH  039%=      5-min Rain = 0
KHA3 141030Z 21004KT 27/12 A2987 RMK A01 T02680118  RH  039%=      5-min Rain = 0
KHA3 141031Z 22004KT 27/12 A2987 RMK A01 T02690118  RH  039%=      5-min Rain = 0
KHA3 141032Z 21004KT 27/12 A2987 RMK A01 T02690117  RH  039%=      5-min Rain = 0
KHA3 141033Z 21003KT 27/12 A2987 RMK A01 T02700118  RH  039%=      5-min Rain = 0
KHA3 141034Z 21003KT 27/12 A2987 RMK A01 T02700117  RH  039%=      5-min Rain = 0
KHA3 141035Z 22003KT 27/12 A2987 RMK A01 T02700117  RH  039%=      5-min Rain = 0
KHA3 141036Z 22004KT 27/12 A2987 RMK A01 T02700118  RH  039%=      5-min Rain = 0
KHA3 141037Z 22004KT 27/12 A2987 RMK A01 T02700118  RH  039%=      5-min Rain = 0
KHA3 141038Z 22004KT 27/12 A2987 RMK A01 T02700118  RH  039%=      5-min Rain = 0
KHA3 141039Z 23003KT 27/12 A2987 RMK A01 T02710118  RH  039%=      5-min Rain = 0
KHA3 141040Z 22003KT 27/12 A2987 RMK A01 T02700118  RH  039%=      5-min Rain = 0
KHA3 141041Z 22003KT 27/12 A2987 RMK A01 T02710118  RH  038%=      5-min Rain = 0
KHA3 141042Z 22003KT 27/12 A2987 RMK A01 T02710118  RH  038%=      5-min Rain = 0
KHA3 141043Z 23003KT 27/12 A2987 RMK A01 T02710118  RH  039%=      5-min Rain = 0
KHA3 141044Z 22003KT 27/12 A2987 RMK A01 T02710119  RH  039%=      5-min Rain = 0
KHA3 141045Z 23003KT 27/12 A2987 RMK A01 T02700120  RH  039%=      5-min Rain = 0
KHA3 141046Z 22003KT 27/12 A2987 RMK A01 T02690119  RH  039%=      5-min Rain = 0
KHA3 141047Z 22003KT 27/12 A2987 RMK A01 T02680120  RH  040%=      5-min Rain = 0
KHA3 141048Z 22003KT 27/12 A2987 RMK A01 T02670120  RH  040%=      5-min Rain = 0
KHA3 141049Z 22004KT 27/12 A2988 RMK A01 T02650120  RH  040%=      5-min Rain = 0
KHA3 141050Z 23003KT 26/12 A2988 RMK A01 T02640120  RH  041%=      5-min Rain = 0
KHA3 141051Z 24003KT 26/12 A2988 RMK A01 T02640119  RH  041%=      5-min Rain = 0
KHA3 141052Z 25003KT 26/12 A2988 RMK A01 T02640120  RH  041%=      5-min Rain = 0
KHA3 141053Z 25003KT 26/12 A2988 RMK A01 T02640119  RH  040%=      5-min Rain = 0
KHA3 141054Z 26003KT 26/12 A2988 RMK A01 T02640118  RH  040%=      5-min Rain = 0
KHA3 141055Z 26003KT 26/12 A2988 RMK A01 T02640118  RH  040%=      5-min Rain = 0
KHA3 141056Z 27003KT 27/12 A2988 RMK A01 T02650118  RH  040%=      5-min Rain = 0
KHA3 141057Z 27003KT 27/12 A2988 RMK A01 T02660118  RH  040%=      5-min Rain = 0
KHA3 141058Z 27003KT 27/12 A2988 RMK A01 T02660119  RH  040%=      5-min Rain = 0
KHA3 141059Z 26003KT 27/12 A2988 RMK A01 T02660119  RH  040%=      5-min Rain = 0
KHA3 141100Z 27003KT 27/12 A2988 RMK A01 T02660119  RH  040%=      5-min Rain = 0
KHA3 141101Z 26003KT 27/12 A2988 RMK A01 T02650119  RH  040%=      5-min Rain = 0
KHA3 141102Z 26004KT 26/12 A2988 RMK A01 T02640119  RH  040%=      5-min Rain = 0
KHA3 141103Z 26004KT 26/12 A2988 RMK A01 T02640119  RH  041%=      5-min Rain = 0
KHA3 141104Z 26003KT 26/12 A2988 RMK A01 T02640119  RH  041%=      5-min Rain = 0
KHA3 141105Z 26003KT 26/12 A2988 RMK A01 T02630119  RH  041%=      5-min Rain = 0
KHA3 141106Z 26003KT 26/12 A2988 RMK A01 T02610120  RH  042%=      5-min Rain = 0
KHA3 141107Z 26003KT 26/12 A2988 RMK A01 T02580121  RH  043%=      5-min Rain = 0
KHA3 141108Z 26003KT 25/12 A2988 RMK A01 T02540121  RH  043%=      5-min Rain = 0
KHA3 141109Z 26003KT 25/12 A2988 RMK A01 T02520120  RH  044%=      5-min Rain = 0
KHA3 141110Z 25003KT 25/12 A2988 RMK A01 T02520120  RH  044%=      5-min Rain = 0
KHA3 141111Z 25003KT 25/12 A2988 RMK A01 T02510120  RH  044%=      5-min Rain = 0
KHA3 141112Z 24003KT 25/12 A2988 RMK A01 T02510121  RH  044%=      5-min Rain = 0
KHA3 141113Z 24003KT 25/12 A2988 RMK A01 T02500121  RH  045%=      5-min Rain = 0
KHA3 141114Z 24003KT 25/12 A2988 RMK A01 T02480121  RH  045%=      5-min Rain = 0
KHA3 141115Z 24003KT 25/12 A2988 RMK A01 T02470120  RH  045%=      5-min Rain = 0
KHA3 141116Z 24003KT 25/12 A2988 RMK A01 T02460120  RH  045%=      5-min Rain = 0
KHA3 141117Z 25002KT 25/12 A2989 RMK A01 T02460121  RH  045%=      5-min Rain = 0
KHA3 141118Z 25002KT 25/12 A2989 RMK A01 T02460120  RH  045%=      5-min Rain = 0
KHA3 141119Z 24003KT 25/12 A2989 RMK A01 T02460119  RH  045%=      5-min Rain = 0
KHA3 141120Z 23003KT 25/12 A2989 RMK A01 T02490118  RH  044%=      5-min Rain = 0
KHA3 141121Z 23003KT 25/12 A2989 RMK A01 T02510119  RH  044%=      5-min Rain = 0
KHA3 141122Z 23003KT 25/12 A2989 RMK A01 T02510119  RH  044%=      5-min Rain = 0
KHA3 141123Z 23003KT 25/12 A2989 RMK A01 T02520120  RH  044%=      5-min Rain = 0
KHA3 141124Z 23002KT 25/12 A2989 RMK A01 T02520120  RH  044%=      5-min Rain = 0
KHA3 141125Z 22002KT 25/12 A2989 RMK A01 T02530120  RH  043%=      5-min Rain = 0
KHA3 141126Z 22002KT 25/12 A2989 RMK A01 T02540119  RH  043%=      5-min Rain = 0
KHA3 141127Z 22002KT 26/12 A2989 RMK A01 T02550119  RH  043%=      5-min Rain = 0
KHA3 141128Z 21002KT 26/12 A2989 RMK A01 T02560119  RH  042%=      5-min Rain = 0
KHA3 141129Z 21002KT 26/12 A2989 RMK A01 T02570119  RH  042%=      5-min Rain = 0
KHA3 141130Z 20003KT 26/12 A2989 RMK A01 T02580120  RH  042%=      5-min Rain = 0
KHA3 141131Z 20002KT 26/12 A2989 RMK A01 T02580120  RH  042%=      5-min Rain = 0
KHA3 141132Z 20002KT 26/12 A2989 RMK A01 T02570120  RH  042%=      5-min Rain = 0
KHA3 141133Z 19002KT 26/12 A2989 RMK A01 T02570120  RH  043%=      5-min Rain = 0
KHA3 141134Z 19003KT 26/12 A2989 RMK A01 T02550122  RH  043%=      5-min Rain = 0
KHA3 141135Z 19002KT 25/12 A2989 RMK A01 T02520121  RH  044%=      5-min Rain = 0
KHA3 141136Z 19002KT 25/12 A2989 RMK A01 T02500121  RH  045%=      5-min Rain = 0
KHA3 141137Z 19002KT 25/12 A2989 RMK A01 T02480122  RH  045%=      5-min Rain = 0
KHA3 141138Z 19002KT 25/12 A2989 RMK A01 T02470121  RH  046%=      5-min Rain = 0
KHA3 141139Z 19002KT 25/12 A2989 RMK A01 T02460121  RH  046%=      5-min Rain = 0
KHA3 141140Z 19002KT 25/12 A2989 RMK A01 T02470121  RH  046%=      5-min Rain = 0
KHA3 141141Z 19002KT 25/12 A2989 RMK A01 T02470121  RH  046%=      5-min Rain = 0
KHA3 141142Z 20002KT 25/12 A2989 RMK A01 T02460122  RH  046%=      5-min Rain = 0
KHA3 141143Z 20002KT 25/12 A2989 RMK A01 T02460121  RH  046%=      5-min Rain = 0
KHA3 141144Z 19002KT 25/12 A2989 RMK A01 T02470122  RH  046%=      5-min Rain = 0
KHA3 141145Z 19003KT 25/12 A2989 RMK A01 T02470122  RH  045%=      5-min Rain = 0
KHA3 141146Z 20002KT 25/12 A2989 RMK A01 T02480121  RH  045%=      5-min Rain = 0
KHA3 141147Z 21001KT 25/12 A2989 RMK A01 T02500121  RH  045%=      5-min Rain = 0
KHA3 141148Z 20002KT 25/12 A2989 RMK A01 T02500122  RH  045%=      5-min Rain = 0
KHA3 141149Z 20002KT 25/12 A299 RMK A01 T02500121  RH  045%=      5-min Rain = 0
KHA3 141150Z 19002KT 25/12 A299 RMK A01 T02510121  RH  044%=      5-min Rain = 0
KHA3 141151Z 18002KT 25/12 A299 RMK A01 T02510122  RH  044%=      5-min Rain = 0
KHA3 141152Z 19002KT 25/12 A299 RMK A01 T02500122  RH  045%=      5-min Rain = 0
KHA3 141153Z 18003KT 25/12 A299 RMK A01 T02480122  RH  045%=      5-min Rain = 0
KHA3 141154Z 18002KT 25/12 A299 RMK A01 T02470122  RH  046%=      5-min Rain = 0
KHA3 141155Z 18002KT 25/12 A299 RMK A01 T02460122  RH  046%=      5-min Rain = 0
KHA3 141156Z 18003KT 25/12 A299 RMK A01 T02460122  RH  046%=      5-min Rain = 0
KHA3 141157Z 18003KT 25/12 A299 RMK A01 T02450122  RH  046%=      5-min Rain = 0
KHA3 141158Z 18002KT 25/12 A299 RMK A01 T02450122  RH  046%=      5-min Rain = 0
KHA3 141159Z 17002KT 25/12 A299 RMK A01 T02450121  RH  046%=      5-min Rain = 0
KHA3 141200Z 18002KT 25/12 A299 RMK A01 T02460122  RH  046%=      5-min Rain = 0
KHA3 141201Z 19002KT 25/12 A299 RMK A01 T02470121  RH  045%=      5-min Rain = 0
KHA3 141202Z 20002KT 25/12 A299 RMK A01 T02480121  RH  045%=      5-min Rain = 0
KHA3 141203Z 20002KT 25/12 A299 RMK A01 T02480122  RH  045%=      5-min Rain = 0
KHA3 141204Z 20003KT 25/12 A299 RMK A01 T02480122  RH  045%=      5-min Rain = 0
KHA3 141205Z 20003KT 25/12 A299 RMK A01 T02470122  RH  045%=      5-min Rain = 0
KHA3 141206Z 20003KT 25/12 A299 RMK A01 T02470122  RH  046%=      5-min Rain = 0
KHA3 141207Z 20003KT 25/12 A299 RMK A01 T02460122  RH  046%=      5-min Rain = 0
KHA3 141208Z 21003KT 25/12 A299 RMK A01 T02460123  RH  046%=      5-min Rain = 0
KHA3 141209Z 21003KT 24/12 A299 RMK A01 T02440123  RH  047%=      5-min Rain = 0
KHA3 141210Z 22003KT 24/12 A299 RMK A01 T02440122  RH  047%=      5-min Rain = 0
KHA3 141211Z 22003KT 24/12 A299 RMK A01 T02440123  RH  047%=      5-min Rain = 0
KHA3 141212Z 22002KT 25/12 A299 RMK A01 T02450123  RH  046%=      5-min Rain = 0
KHA3 141213Z 22003KT 25/12 A299 RMK A01 T02460123  RH  046%=      5-min Rain = 0
KHA3 141214Z 22003KT 25/12 A299 RMK A01 T02460123  RH  046%=      5-min Rain = 0
KHA3 141215Z 22003KT 25/12 A299 RMK A01 T02460124  RH  047%=      5-min Rain = 0
KHA3 141216Z 22004KT 25/12 A299 RMK A01 T02450124  RH  047%=      5-min Rain = 0
KHA3 141217Z 21003KT 24/12 A299 RMK A01 T02440124  RH  047%=      5-min Rain = 0
KHA3 141218Z 22003KT 24/13 A299 RMK A01 T02430125  RH  047%=      5-min Rain = 0
KHA3 141219Z 21002KT 24/12 A299 RMK A01 T02440123  RH  047%=      5-min Rain = 0
KHA3 141220Z 22003KT 25/12 A299 RMK A01 T02460124  RH  046%=      5-min Rain = 0
KHA3 141221Z 22003KT 25/12 A2991 RMK A01 T02470124  RH  046%=      5-min Rain = 0
KHA3 141222Z 24002KT 25/12 A2991 RMK A01 T02470124  RH  046%=      5-min Rain = 0
KHA3 141223Z 22003KT 25/12 A2991 RMK A01 T02470124  RH  046%=      5-min Rain = 0
KHA3 141224Z 21003KT 25/13 A2991 RMK A01 T02480126  RH  047%=      5-min Rain = 0
KHA3 141225Z 21002KT 25/13 A2991 RMK A01 T02480125  RH  046%=      5-min Rain = 0
KHA3 141226Z 23003KT 25/13 A2991 RMK A01 T02480126  RH  047%=      5-min Rain = 0
KHA3 141227Z 23003KT 25/13 A2991 RMK A01 T02480125  RH  046%=      5-min Rain = 0
KHA3 141228Z 22003KT 25/13 A2991 RMK A01 T02510126  RH  046%=      5-min Rain = 0
KHA3 141229Z 24002KT 25/13 A2991 RMK A01 T02520125  RH  045%=      5-min Rain = 0
KHA3 141230Z 23002KT 25/13 A2991 RMK A01 T02530127  RH  045%=      5-min Rain = 0
KHA3 141231Z 23002KT 25/13 A2991 RMK A01 T02530126  RH  045%=      5-min Rain = 0
KHA3 141232Z 22002KT 25/13 A2991 RMK A01 T02530127  RH  046%=      5-min Rain = 0
KHA3 141233Z 22002KT 25/13 A2991 RMK A01 T02520127  RH  045%=      5-min Rain = 0
KHA3 141234Z 22002KT 25/13 A2991 RMK A01 T02530127  RH  046%=      5-min Rain = 0
KHA3 141235Z 19003KT 25/13 A2991 RMK A01 T02520127  RH  046%=      5-min Rain = 0
KHA3 141236Z 20003KT 25/13 A2991 RMK A01 T02520128  RH  046%=      5-min Rain = 0
KHA3 141237Z 21003KT 25/13 A2991 RMK A01 T02520127  RH  046%=      5-min Rain = 0
KHA3 141238Z 22003KT 25/13 A2991 RMK A01 T02530127  RH  046%=      5-min Rain = 0
KHA3 141239Z 22003KT 25/13 A2991 RMK A01 T02530127  RH  046%=      5-min Rain = 0
KHA3 141240Z 22003KT 26/13 A2991 RMK A01 T02550127  RH  045%=      5-min Rain = 0
KHA3 141241Z 22003KT 26/13 A2991 RMK A01 T02560128  RH  045%=      5-min Rain = 0
KHA3 141242Z 22003KT 26/13 A2991 RMK A01 T02570129  RH  045%=      5-min Rain = 0
KHA3 141243Z 23002KT 26/13 A2991 RMK A01 T02570129  RH  045%=      5-min Rain = 0
KHA3 141244Z 23002KT 26/13 A2991 RMK A01 T02570129  RH  045%=      5-min Rain = 0
KHA3 141245Z 22002KT 26/13 A2991 RMK A01 T02580129  RH  045%=      5-min Rain = 0
KHA3 141246Z 23003KT 26/13 A2992 RMK A01 T02590130  RH  045%=      5-min Rain = 0
KHA3 141247Z 23003KT 26/13 A2992 RMK A01 T02600130  RH  045%=      5-min Rain = 0
KHA3 141248Z 22003KT 26/13 A2992 RMK A01 T02600130  RH  044%=      5-min Rain = 0
KHA3 141249Z 22003KT 26/13 A2992 RMK A01 T02620132  RH  045%=      5-min Rain = 0
KHA3 141250Z 22003KT 26/13 A2992 RMK A01 T02630132  RH  044%=      5-min Rain = 0
KHA3 141251Z 22003KT 26/13 A2992 RMK A01 T02640131  RH  044%=      5-min Rain = 0
KHA3 141252Z 22003KT 26/13 A2992 RMK A01 T02640132  RH  044%=      5-min Rain = 0
KHA3 141253Z 21003KT 27/13 A2992 RMK A01 T02650133  RH  044%=      5-min Rain = 0
KHA3 141254Z 22003KT 27/13 A2991 RMK A01 T02650133  RH  044%=      5-min Rain = 0
KHA3 141255Z 21003KT 27/13 A2991 RMK A01 T02650133  RH  044%=      5-min Rain = 0
KHA3 141256Z 20003KT 27/13 A2991 RMK A01 T02650133  RH  044%=      5-min Rain = 0
KHA3 141257Z 21004KT 27/13 A2992 RMK A01 T02650133  RH  044%=      5-min Rain = 0
KHA3 141258Z 21004KT 27/13 A2992 RMK A01 T02660134  RH  044%=      5-min Rain = 0
KHA3 141259Z 21004KT 27/13 A2992 RMK A01 T02660134  RH  044%=      5-min Rain = 0
KHA3 141300Z 22004KT 27/14 A2992 RMK A01 T02650135  RH  045%=      5-min Rain = 0
KHA3 141301Z 22005KT 27/14 A2992 RMK A01 T02650136  RH  045%=      5-min Rain = 0
KHA3 141302Z 22005KT 27/14 A2991 RMK A01 T02650136  RH  045%=      5-min Rain = 0
KHA3 141303Z 22005KT 27/14 A2991 RMK A01 T02650137  RH  045%=      5-min Rain = 0
KHA3 141304Z 22005KT 27/14 A2991 RMK A01 T02660138  RH  045%=      5-min Rain = 0
KHA3 141305Z 22005KT 27/14 A2991 RMK A01 T02680140  RH  045%=      5-min Rain = 0
KHA3 141306Z 22005KT 27/14 A2991 RMK A01 T02690141  RH  046%=      5-min Rain = 0
KHA3 141307Z 21004KT 27/14 A2991 RMK A01 T02700143  RH  046%=      5-min Rain = 0
KHA3 141308Z 22005KT 27/14 A2991 RMK A01 T02710144  RH  046%=      5-min Rain = 0
KHA3 141309Z 22005KT 27/14 A2991 RMK A01 T02730142  RH  045%=      5-min Rain = 0
KHA3 141310Z 22005KT 28/14 A2991 RMK A01 T02760140  RH  043%=      5-min Rain = 0
KHA3 141311Z 22004KT 28/14 A2991 RMK A01 T02780140  RH  043%=      5-min Rain = 0
KHA3 141312Z 23004KT 28/14 A2991 RMK A01 T02800141  RH  043%=      5-min Rain = 0
KHA3 141313Z 23004KT 28/14 A2992 RMK A01 T02820140  RH  042%=      5-min Rain = 0
KHA3 141314Z 23004KT 28/14 A2992 RMK A01 T02840138  RH  041%=      5-min Rain = 0
KHA3 141315Z 23005KT 29/14 A2992 RMK A01 T02850137  RH  040%=      5-min Rain = 0
KHA3 141316Z 24005KT 29/14 A2992 RMK A01 T02870136  RH  040%=      5-min Rain = 0
KHA3 141317Z 24005KT 29/14 A2992 RMK A01 T02890135  RH  039%=      5-min Rain = 0
KHA3 141318Z 24005KT 29/13 A2992 RMK A01 T02900133  RH  038%=      5-min Rain = 0
KHA3 141319Z 24005KT 29/13 A2992 RMK A01 T02920133  RH  038%=      5-min Rain = 0
KHA3 141320Z 24005KT 29/13 A2992 RMK A01 T02920134  RH  038%=      5-min Rain = 0
KHA3 141321Z 24004KT 29/13 A2992 RMK A01 T02930134  RH  038%=      5-min Rain = 0
KHA3 141322Z 24005KT 29/13 A2992 RMK A01 T02930134  RH  038%=      5-min Rain = 0
KHA3 141323Z 24005KT 29/13 A2992 RMK A01 T02940134  RH  037%=      5-min Rain = 0
KHA3 141324Z 24004KT 29/13 A2992 RMK A01 T02940134  RH  037%=      5-min Rain = 0
KHA3 141325Z 24005KT 29/13 A2992 RMK A01 T02940134  RH  037%=      5-min Rain = 0
KHA3 141326Z 24004KT 30/14 A2992 RMK A01 T02950135  RH  038%=      5-min Rain = 0
KHA3 141327Z 24005KT 30/14 A2992 RMK A01 T02950135  RH  037%=      5-min Rain = 0
KHA3 141328Z 24005KT 30/14 A2992 RMK A01 T02960135  RH  037%=      5-min Rain = 0
KHA3 141329Z 25004KT 30/14 A2992 RMK A01 T02960135  RH  037%=      5-min Rain = 0
KHA3 141330Z 24004KT 30/14 A2992 RMK A01 T02960136  RH  037%=      5-min Rain = 0
KHA3 141331Z 25005KT 30/14 A2992 RMK A01 T02970136  RH  037%=      5-min Rain = 0
KHA3 141332Z 25005KT 30/14 A2992 RMK A01 T02970135  RH  037%=      5-min Rain = 0
KHA3 141333Z 24004KT 30/14 A2992 RMK A01 T02980135  RH  037%=      5-min Rain = 0
KHA3 141334Z 25005KT 30/14 A2992 RMK A01 T02990135  RH  037%=      5-min Rain = 0
KHA3 141335Z 25004KT 30/14 A2992 RMK A01 T03000135  RH  036%=      5-min Rain = 0
KHA3 141336Z 25005KT 30/14 A2992 RMK A01 T03010136  RH  036%=      5-min Rain = 0
KHA3 141337Z 24006KT 30/13 A2992 RMK A01 T03020133  RH  036%=      5-min Rain = 0
KHA3 141338Z 25005KT 30/13 A2992 RMK A01 T03020133  RH  036%=      5-min Rain = 0
KHA3 141339Z 25005KT 30/13 A2992 RMK A01 T03020134  RH  036%=      5-min Rain = 0
KHA3 141340Z 25004KT 30/14 A2992 RMK A01 T03030136  RH  036%=      5-min Rain = 0
KHA3 141341Z 24004KT 30/14 A2992 RMK A01 T03040136  RH  036%=      5-min Rain = 0
KHA3 141342Z 25004KT 31/14 A2992 RMK A01 T03050136  RH  036%=      5-min Rain = 0
KHA3 141343Z 24004KT 31/14 A2992 RMK A01 T03050135  RH  035%=      5-min Rain = 0
KHA3 141344Z 24005KT 31/14 A2992 RMK A01 T03050135  RH  035%=      5-min Rain = 0
KHA3 141345Z 24005KT 31/14 A2992 RMK A01 T03050136  RH  036%=      5-min Rain = 0
KHA3 141346Z 24004KT 31/14 A2992 RMK A01 T03050137  RH  036%=      5-min Rain = 0
KHA3 141347Z 25004KT 31/14 A2992 RMK A01 T03060137  RH  036%=      5-min Rain = 0
KHA3 141348Z 26004KT 31/14 A2992 RMK A01 T03060136  RH  035%=      5-min Rain = 0
KHA3 141349Z 25004KT 31/14 A2992 RMK A01 T03060137  RH  036%=      5-min Rain = 0
KHA3 141350Z 26004KT 31/14 A2992 RMK A01 T03070136  RH  035%=      5-min Rain = 0
KHA3 141351Z 25004KT 31/13 A2992 RMK A01 T03080134  RH  035%=      5-min Rain = 0
KHA3 141352Z 24005KT 31/13 A2992 RMK A01 T03090134  RH  034%=      5-min Rain = 0
KHA3 141353Z 25005KT 31/14 A2992 RMK A01 T03090136  RH  035%=      5-min Rain = 0
KHA3 141354Z 25005KT 31/14 A2992 RMK A01 T03100136  RH  035%=      5-min Rain = 0
KHA3 141355Z 25005KT 31/14 A2992 RMK A01 T03110135  RH  034%=      5-min Rain = 0
KHA3 141356Z 25005KT 31/14 A2992 RMK A01 T03120135  RH  034%=      5-min Rain = 0
KHA3 141357Z 24005KT 31/14 A2992 RMK A01 T03120136  RH  034%=      5-min Rain = 0
KHA3 141358Z 25005KT 31/14 A2992 RMK A01 T03120136  RH  034%=      5-min Rain = 0
KHA3 141359Z 24005KT 31/14 A2992 RMK A01 T03130137  RH  034%=      5-min Rain = 0
KHA3 141400Z 24005KT 31/14 A2992 RMK A01 T03130136  RH  034%=      5-min Rain = 0
KHA3 141401Z 23005KT 31/14 A2992 RMK A01 T03140137  RH  034%=      5-min Rain = 0
KHA3 141402Z 23004KT 32/14 A2992 RMK A01 T03150137  RH  034%=      5-min Rain = 0
KHA3 141403Z 25005KT 32/14 A2992 RMK A01 T03160138  RH  034%=      5-min Rain = 0
KHA3 141404Z 25005KT 32/14 A2992 RMK A01 T03160137  RH  034%=      5-min Rain = 0
KHA3 141405Z 25004KT 32/14 A2992 RMK A01 T03160138  RH  034%=      5-min Rain = 0
KHA3 141406Z 24004KT 32/14 A2992 RMK A01 T03170137  RH  033%=      5-min Rain = 0
KHA3 141407Z 25004KT 32/14 A2992 RMK A01 T03170137  RH  034%=      5-min Rain = 0
KHA3 141408Z 26004KT 32/14 A2992 RMK A01 T03170138  RH  034%=      5-min Rain = 0
KHA3 141409Z 26004KT 32/14 A2992 RMK A01 T03180138  RH  033%=      5-min Rain = 0
KHA3 141410Z 26004KT 32/14 A2992 RMK A01 T03190139  RH  033%=      5-min Rain = 0
KHA3 141411Z 26004KT 32/14 A2992 RMK A01 T03200138  RH  033%=      5-min Rain = 0
KHA3 141412Z 26003KT 32/14 A2992 RMK A01 T03200139  RH  033%=      5-min Rain = 0
KHA3 141413Z 26004KT 32/14 A2992 RMK A01 T03200139  RH  033%=      5-min Rain = 0
KHA3 141414Z 25005KT 32/14 A2992 RMK A01 T03200139  RH  033%=      5-min Rain = 0
KHA3 141415Z 26005KT 32/14 A2992 RMK A01 T03210138  RH  033%=      5-min Rain = 0
KHA3 141416Z 25005KT 32/14 A2992 RMK A01 T03210138  RH  033%=      5-min Rain = 0
KHA3 141417Z 24006KT 32/14 A2992 RMK A01 T03220138  RH  033%=      5-min Rain = 0
KHA3 141418Z 25005KT 32/14 A2992 RMK A01 T03210139  RH  033%=      5-min Rain = 0
KHA3 141419Z 24004KT 32/14 A2992 RMK A01 T03220140  RH  033%=      5-min Rain = 0
KHA3 141420Z 25004KT 32/14 A2992 RMK A01 T03230139  RH  033%=      5-min Rain = 0
KHA3 141421Z 25005KT 32/14 A2992 RMK A01 T03240140  RH  033%=      5-min Rain = 0
KHA3 141422Z 24005KT 32/14 A2992 RMK A01 T03240141  RH  033%=      5-min Rain = 0
KHA3 141423Z 24006KT 32/14 A2992 RMK A01 T03240141  RH  033%=      5-min Rain = 0
KHA3 141424Z 25006KT 33/14 A2992 RMK A01 T03250141  RH  033%=      5-min Rain = 0
KHA3 141425Z 25005KT 33/14 A2992 RMK A01 T03250141  RH  033%=      5-min Rain = 0
KHA3 141426Z 25006KT 32/14 A2992 RMK A01 T03240143  RH  033%=      5-min Rain = 0
KHA3 141427Z 24006KT 32/14 A2992 RMK A01 T03240142  RH  033%=      5-min Rain = 0
KHA3 141428Z 25006KT 32/14 A2992 RMK A01 T03230142  RH  033%=      5-min Rain = 0
KHA3 141429Z 24007KT 32/14 A2992 RMK A01 T03230142  RH  034%=      5-min Rain = 0
KHA3 141430Z 24007KT 32/14 A2992 RMK A01 T03240142  RH  033%=      5-min Rain = 0
KHA3 141431Z 24007KT 32/14 A2992 RMK A01 T03240142  RH  033%=      5-min Rain = 0
KHA3 141432Z 24005KT 33/14 A2992 RMK A01 T03250143  RH  033%=      5-min Rain = 0
KHA3 141433Z 25005KT 33/15 A2992 RMK A01 T03260145  RH  034%=      5-min Rain = 0
KHA3 141434Z 25007KT 33/14 A2992 RMK A01 T03280143  RH  033%=      5-min Rain = 0
KHA3 141435Z 24008KT 33/14 A2992 RMK A01 T03280142  RH  033%=      5-min Rain = 0
KHA3 141436Z 24008KT 33/14 A2992 RMK A01 T03280142  RH  033%=      5-min Rain = 0
KHA3 141437Z 24006KT 33/14 A2992 RMK A01 T03280143  RH  033%=      5-min Rain = 0
KHA3 141438Z 24007KT 33/14 A2992 RMK A01 T03290143  RH  033%=      5-min Rain = 0
KHA3 141439Z 24007KT 33/14 A2992 RMK A01 T03300144  RH  033%=      5-min Rain = 0
KHA3 141440Z 25006KT 33/15 A2992 RMK A01 T03320145  RH  032%=      5-min Rain = 0
KHA3 141441Z 24007KT 33/14 A2992 RMK A01 T03320144  RH  032%=      5-min Rain = 0
KHA3 141442Z 24008KT 33/14 A2992 RMK A01 T03330143  RH  032%=      5-min Rain = 0
KHA3 141443Z 24006KT 33/14 A2992 RMK A01 T03320142  RH  032%=      5-min Rain = 0
KHA3 141444Z 25007KT 33/14 A2992 RMK A01 T03320143  RH  032%=      5-min Rain = 0
KHA3 141445Z 25008KT 33/14 A2992 RMK A01 T03340144  RH  032%=      5-min Rain = 0
KHA3 141446Z 25010G15KT 34/14 A2992 RMK A01 T03350143  RH  031%=      5-min Rain = 0
KHA3 141447Z 24011KT 34/14 A2992 RMK A01 T03360142  RH  031%=      5-min Rain = 0
KHA3 141448Z 25011KT 34/14 A2992 RMK A01 T03350141  RH  031%=      5-min Rain = 0
KHA3 141449Z 24010KT 34/14 A2992 RMK A01 T03350142  RH  031%=      5-min Rain = 0
KHA3 141450Z 25010KT 34/14 A2992 RMK A01 T03350142  RH  031%=      5-min Rain = 0
KHA3 141451Z 26009KT 34/14 A2992 RMK A01 T03350142  RH  031%=      5-min Rain = 0
KHA3 141452Z 23010KT 34/14 A2992 RMK A01 T03370143  RH  031%=      5-min Rain = 0
KHA3 141453Z 25011KT 34/14 A2992 RMK A01 T03380143  RH  031%=      5-min Rain = 0
KHA3 141454Z 25012KT 34/14 A2992 RMK A01 T03380143  RH  031%=      5-min Rain = 0
KHA3 141455Z 26011KT 34/14 A2992 RMK A01 T03380143  RH  031%=      5-min Rain = 0
KHA3 141456Z 26010KT 34/14 A2992 RMK A01 T03380143  RH  031%=      5-min Rain = 0
KHA3 141457Z 26011KT 34/14 A2992 RMK A01 T03380143  RH  031%=      5-min Rain = 0
KHA3 141458Z 26010KT 34/14 A2992 RMK A01 T03390144  RH  031%=      5-min Rain = 0
KHA3 141459Z 27009KT 34/14 A2992 RMK A01 T03400144  RH  031%=      5-min Rain = 0
KHA3 141500Z 27010KT 34/15 A2992 RMK A01 T03410145  RH  031%=      5-min Rain = 0
KHA3 141501Z 26010KT 34/15 A2992 RMK A01 T03430145  RH  031%=      5-min Rain = 0
KHA3 141502Z 26009KT 34/15 A2991 RMK A01 T03440145  RH  030%=      5-min Rain = 0
KHA3 141503Z 25009KT 34/15 A2992 RMK A01 T03440146  RH  031%=      5-min Rain = 0
KHA3 141504Z 25011KT 34/15 A2992 RMK A01 T03440145  RH  030%=      5-min Rain = 0
KHA3 141505Z 23011KT 34/15 A2992 RMK A01 T03440145  RH  030%=      5-min Rain = 0
KHA3 141506Z 24009KT 34/15 A2992 RMK A01 T03440145  RH  030%=      5-min Rain = 0
KHA3 141507Z 24010KT 34/15 A2992 RMK A01 T03430145  RH  031%=      5-min Rain = 0
KHA3 141508Z 25010KT 34/15 A2992 RMK A01 T03440145  RH  030%=      5-min Rain = 0
KHA3 141509Z 25011KT 35/15 A2992 RMK A01 T03450145  RH  030%=      5-min Rain = 0
KHA3 141510Z 24012KT 35/15 A2991 RMK A01 T03450146  RH  030%=      5-min Rain = 0
KHA3 141511Z 24011KT 34/15 A2991 RMK A01 T03440145  RH  030%=      5-min Rain = 0
KHA3 141512Z 25010G15KT 34/15 A2991 RMK A01 T03430146  RH  031%=      5-min Rain = 0
KHA3 141513Z 25013KT 34/15 A2991 RMK A01 T03440146  RH  030%=      5-min Rain = 0
KHA3 141514Z 25011KT 35/15 A2991 RMK A01 T03470146  RH  030%=      5-min Rain = 0
KHA3 141515Z 24010KT 35/15 A2991 RMK A01 T03470147  RH  030%=      5-min Rain = 0
KHA3 141516Z 25012KT 35/15 A2991 RMK A01 T03480146  RH  030%=      5-min Rain = 0
KHA3 141517Z 25012KT 35/15 A2991 RMK A01 T03490148  RH  030%=      5-min Rain = 0
KHA3 141518Z 24011KT 35/15 A2991 RMK A01 T03500147  RH  030%=      5-min Rain = 0
KHA3 141519Z 24009KT 35/15 A2991 RMK A01 T03490147  RH  030%=      5-min Rain = 0
KHA3 141520Z 26012KT 35/15 A2991 RMK A01 T03490147  RH  030%=      5-min Rain = 0
KHA3 141521Z 25010KT 35/15 A2991 RMK A01 T03500147  RH  030%=      5-min Rain = 0
KHA3 141522Z 25010KT 35/15 A2991 RMK A01 T03520148  RH  030%=      5-min Rain = 0
KHA3 141523Z 25010KT 35/15 A2991 RMK A01 T03530148  RH  029%=      5-min Rain = 0
KHA3 141524Z 26010KT 36/15 A2991 RMK A01 T03550149  RH  029%=      5-min Rain = 0
KHA3 141525Z 25010KT 36/15 A2991 RMK A01 T03560149  RH  029%=      5-min Rain = 0
KHA3 141526Z 24009KT 35/15 A2991 RMK A01 T03540148  RH  029%=      5-min Rain = 0
KHA3 141527Z 25007KT 35/15 A2991 RMK A01 T03540149  RH  029%=      5-min Rain = 0
KHA3 141528Z 25009KT 36/15 A2991 RMK A01 T03550150  RH  029%=      5-min Rain = 0
KHA3 141529Z 25009KT 36/15 A2991 RMK A01 T03580151  RH  029%=      5-min Rain = 0
KHA3 141530Z 26009KT 36/15 A2991 RMK A01 T03590150  RH  029%=      5-min Rain = 0
KHA3 141531Z 27012KT 36/15 A2991 RMK A01 T03590150  RH  029%=      5-min Rain = 0
KHA3 141532Z 25010KT 36/15 A2991 RMK A01 T03600150  RH  029%=      5-min Rain = 0
KHA3 141533Z 25009KT 36/15 A2991 RMK A01 T03610150  RH  029%=      5-min Rain = 0
KHA3 141534Z 25009KT 36/15 A2991 RMK A01 T03610149  RH  028%=      5-min Rain = 0
KHA3 141535Z 26010KT 36/15 A2991 RMK A01 T03600150  RH  029%=      5-min Rain = 0
KHA3 141536Z 26010KT 36/15 A2991 RMK A01 T03600150  RH  029%=      5-min Rain = 0
KHA3 141537Z 26011KT 36/15 A2991 RMK A01 T03600150  RH  029%=      5-min Rain = 0
KHA3 141538Z 24011KT 36/15 A2991 RMK A01 T03590149  RH  029%=      5-min Rain = 0
KHA3 141539Z 23012KT 36/15 A2991 RMK A01 T03590149  RH  029%=      5-min Rain = 0
KHA3 141540Z 24010KT 36/15 A2991 RMK A01 T03570149  RH  029%=      5-min Rain = 0
KHA3 141541Z 24009KT 36/15 A2991 RMK A01 T03580149  RH  029%=      5-min Rain = 0
KHA3 141542Z 25011KT 36/15 A2991 RMK A01 T03580150  RH  029%=      5-min Rain = 0
KHA3 141543Z 26011KT 36/15 A2991 RMK A01 T03590150  RH  029%=      5-min Rain = 0
KHA3 141544Z 26010KT 36/15 A2991 RMK A01 T03610150  RH  029%=      5-min Rain = 0
KHA3 141545Z 26009KT 36/15 A2991 RMK A01 T03620151  RH  029%=      5-min Rain = 0
KHA3 141546Z 27007KT 36/15 A2991 RMK A01 T03630151  RH  028%=      5-min Rain = 0
KHA3 141547Z 24008KT 36/15 A2991 RMK A01 T03640152  RH  028%=      5-min Rain = 0
KHA3 141548Z 25006KT 37/15 A2991 RMK A01 T03650152  RH  028%=      5-min Rain = 0
KHA3 141549Z 28007KT 37/15 A2991 RMK A01 T03650152  RH  028%=      5-min Rain = 0
KHA3 141550Z 26008KT 37/15 A2991 RMK A01 T03650151  RH  028%=      5-min Rain = 0
KHA3 141551Z 26007KT 37/15 A2991 RMK A01 T03650152  RH  028%=      5-min Rain = 0
KHA3 141552Z 26006KT 37/15 A2991 RMK A01 T03660153  RH  028%=      5-min Rain = 0
KHA3 141553Z 24006KT 37/16 A2991 RMK A01 T03700155  RH  028%=      5-min Rain = 0
KHA3 141554Z 26008KT 37/15 A2991 RMK A01 T03720153  RH  027%=      5-min Rain = 0
KHA3 141555Z 27007KT 37/15 A2991 RMK A01 T03700154  RH  028%=      5-min Rain = 0
KHA3 141556Z 27009KT 37/15 A2991 RMK A01 T03690153  RH  028%=      5-min Rain = 0
KHA3 141557Z 26010KT 37/15 A2991 RMK A01 T03690153  RH  028%=      5-min Rain = 0
KHA3 141558Z 29009KT 37/15 A2991 RMK A01 T03690153  RH  028%=      5-min Rain = 0
KHA3 141559Z 30006KT 37/15 A2991 RMK A01 T03670152  RH  028%=      5-min Rain = 0
KHA3 141600Z 31008KT 37/15 A2991 RMK A01 T03660153  RH  028%=      5-min Rain = 0
KHA3 141601Z 32005KT 37/15 A2991 RMK A01 T03660153  RH  028%=      5-min Rain = 0
KHA3 141602Z 29007KT 37/15 A2991 RMK A01 T03670153  RH  028%=      5-min Rain = 0
KHA3 141603Z 28007KT 37/15 A2991 RMK A01 T03680153  RH  028%=      5-min Rain = 0
KHA3 141604Z 26005KT 37/15 A2991 RMK A01 T03680152  RH  028%=      5-min Rain = 0
KHA3 141605Z 29004KT 37/15 A2991 RMK A01 T03690152  RH  028%=      5-min Rain = 0
KHA3 141606Z 27004KT 37/15 A2991 RMK A01 T03690152  RH  028%=      5-min Rain = 0
KHA3 141607Z 27006KT 37/15 A2991 RMK A01 T03690153  RH  028%=      5-min Rain = 0
KHA3 141608Z 27008KT 37/15 A2991 RMK A01 T03700152  RH  027%=      5-min Rain = 0
KHA3 141609Z 27010KT 37/15 A2991 RMK A01 T03730148  RH  026%=      5-min Rain = 0
KHA3 141610Z 27011KT 38/15 A2991 RMK A01 T03750148  RH  026%=      5-min Rain = 0
KHA3 141611Z 28013KT 38/15 A2991 RMK A01 T03760149  RH  026%=      5-min Rain = 0
KHA3 141612Z 26014KT 38/15 A2991 RMK A01 T03770149  RH  026%=      5-min Rain = 0
KHA3 141613Z 26012KT 38/15 A2991 RMK A01 T03770148  RH  026%=      5-min Rain = 0
KHA3 141614Z 26012KT 38/15 A2991 RMK A01 T03760149  RH  026%=      5-min Rain = 0
KHA3 141615Z 26010KT 38/15 A2991 RMK A01 T03760149  RH  026%=      5-min Rain = 0
KHA3 141616Z 27010KT 38/15 A2991 RMK A01 T03760150  RH  026%=      5-min Rain = 0
KHA3 141617Z 27010KT 38/15 A2991 RMK A01 T03760150  RH  026%=      5-min Rain = 0
KHA3 141618Z 28011KT 38/15 A2991 RMK A01 T03760152  RH  027%=      5-min Rain = 0
KHA3 141619Z 28008KT 38/15 A2991 RMK A01 T03760153  RH  027%=      5-min Rain = 0
KHA3 141620Z 29008KT 38/15 A2991 RMK A01 T03780153  RH  026%=      5-min Rain = 0
KHA3 141621Z 30006KT 38/15 A2991 RMK A01 T03770153  RH  027%=      5-min Rain = 0
KHA3 141622Z 28010G15KT 38/15 A2991 RMK A01 T03770152  RH  027%=      5-min Rain = 0
KHA3 141623Z 28011KT 38/15 A2991 RMK A01 T03790150  RH  026%=      5-min Rain = 0
KHA3 141624Z 30011KT 38/15 A2991 RMK A01 T03800146  RH  025%=      5-min Rain = 0
KHA3 141625Z 29010KT 38/15 A2991 RMK A01 T03800147  RH  025%=      5-min Rain = 0
KHA3 141626Z 29009KT 38/15 A2991 RMK A01 T03800149  RH  026%=      5-min Rain = 0
KHA3 141627Z 29008KT 38/15 A2991 RMK A01 T03830150  RH  025%=      5-min Rain = 0
KHA3 141628Z 29009KT 38/15 A2991 RMK A01 T03840151  RH  025%=      5-min Rain = 0
KHA3 141629Z 28010KT 38/15 A2991 RMK A01 T03840151  RH  025%=      5-min Rain = 0
KHA3 141630Z 29007KT 38/15 A2991 RMK A01 T03830152  RH  026%=      5-min Rain = 0
KHA3 141631Z 29008KT 38/15 A2991 RMK A01 T03830152  RH  026%=      5-min Rain = 0
KHA3 141632Z 28007KT 38/15 A2991 RMK A01 T03820151  RH  026%=      5-min Rain = 0
KHA3 141633Z 27008KT 38/15 A2991 RMK A01 T03820151  RH  026%=      5-min Rain = 0
KHA3 141634Z 26006KT 38/15 A2991 RMK A01 T03810151  RH  026%=      5-min Rain = 0
KHA3 141635Z 26006KT 38/15 A2991 RMK A01 T03810150  RH  026%=      5-min Rain = 0
KHA3 141636Z 26006G12KT 38/15 A2991 RMK A01 T03800151  RH  026%=      5-min Rain = 0
KHA3 141637Z 27011KT 38/15 A2991 RMK A01 T03810148  RH  025%=      5-min Rain = 0
KHA3 141638Z 26010KT 38/15 A2991 RMK A01 T03840146  RH  025%=      5-min Rain = 0
KHA3 141639Z 26007G12KT 39/15 A2991 RMK A01 T03860147  RH  024%=      5-min Rain = 0
KHA3 141640Z 28011KT 39/15 A2991 RMK A01 T03870149  RH  025%=      5-min Rain = 0
KHA3 141641Z 28009KT 39/15 A2991 RMK A01 T03890147  RH  024%=      5-min Rain = 0
KHA3 141642Z 28007KT 39/15 A2991 RMK A01 T03860148  RH  025%=      5-min Rain = 0
KHA3 141643Z 30011KT 39/15 A2991 RMK A01 T03910149  RH  024%=      5-min Rain = 0
KHA3 141644Z 30010KT 39/15 A2991 RMK A01 T03930147  RH  024%=      5-min Rain = 0
KHA3 141645Z 30006KT 39/15 A2991 RMK A01 T03900148  RH  024%=      5-min Rain = 0
KHA3 141646Z 27008KT 39/15 A2991 RMK A01 T03900151  RH  024%=      5-min Rain = 0
KHA3 141647Z 28008KT 39/15 A2991 RMK A01 T03920149  RH  024%=      5-min Rain = 0
KHA3 141648Z 27009KT 39/15 A2991 RMK A01 T03910151  RH  024%=      5-min Rain = 0
KHA3 141649Z 30008KT 39/15 A2991 RMK A01 T03910149  RH  024%=      5-min Rain = 0
KHA3 141650Z 30009KT 39/15 A2991 RMK A01 T03900150  RH  024%=      5-min Rain = 0
KHA3 141651Z 30006KT 39/15 A2991 RMK A01 T03910150  RH  024%=      5-min Rain = 0
KHA3 141652Z 33004KT 39/15 A2991 RMK A01 T03910149  RH  024%=      5-min Rain = 0
KHA3 141653Z 30004KT 39/15 A2991 RMK A01 T03900147  RH  024%=      5-min Rain = 0
KHA3 141654Z 31007KT 39/15 A2991 RMK A01 T03900148  RH  024%=      5-min Rain = 0
KHA3 141655Z 27008KT 39/15 A2991 RMK A01 T03940148  RH  024%=      5-min Rain = 0
KHA3 141656Z 26009KT 40/15 A2991 RMK A01 T03950149  RH  023%=      5-min Rain = 0
KHA3 141657Z 25009KT 40/15 A2991 RMK A01 T03960149  RH  023%=      5-min Rain = 0
KHA3 141658Z 25009KT 40/15 A2991 RMK A01 T03960147  RH  023%=      5-min Rain = 0
KHA3 141659Z 24008KT 39/15 A2991 RMK A01 T03940146  RH  023%=      5-min Rain = 0
KHA3 141700Z 23007KT 39/15 A2991 RMK A01 T03940145  RH  023%=      5-min Rain = 0
KHA3 141701Z 23004KT 39/15 A2991 RMK A01 T03910145  RH  023%=      5-min Rain = 0
KHA3 141702Z 21005KT 39/14 A299 RMK A01 T03910144  RH  023%=      5-min Rain = 0
KHA3 141703Z 20003KT 39/15 A299 RMK A01 T03910145  RH  023%=      5-min Rain = 0
KHA3 141704Z 19001KT 39/15 A299 RMK A01 T03910146  RH  024%=      5-min Rain = 0
KHA3 141705Z 29003KT 40/15 A299 RMK A01 T03950148  RH  023%=      5-min Rain = 0
KHA3 141706Z 31006KT 40/15 A299 RMK A01 T03970148  RH  023%=      5-min Rain = 0
KHA3 141707Z 30005KT 40/15 A299 RMK A01 T03960147  RH  023%=      5-min Rain = 0
KHA3 141708Z 27004KT 39/15 A299 RMK A01 T03920147  RH  024%=      5-min Rain = 0
KHA3 141709Z 27004KT 39/15 A299 RMK A01 T03910148  RH  024%=      5-min Rain = 0
KHA3 141710Z 30002KT 39/15 A299 RMK A01 T03900147  RH  024%=      5-min Rain = 0
KHA3 141711Z 33006KT 39/15 A299 RMK A01 T03920148  RH  024%=      5-min Rain = 0
KHA3 141712Z 33007KT 39/15 A299 RMK A01 T03920148  RH  024%=      5-min Rain = 0
KHA3 141713Z 32007KT 40/15 A299 RMK A01 T03950149  RH  024%=      5-min Rain = 0
KHA3 141714Z 33007KT 40/15 A299 RMK A01 T03950147  RH  023%=      5-min Rain = 0
KHA3 141715Z 35003KT 39/15 A299 RMK A01 T03920146  RH  023%=      5-min Rain = 0
KHA3 141716Z 26001KT 39/15 A299 RMK A01 T03910148  RH  024%=      5-min Rain = 0
KHA3 141717Z 23005KT 40/15 A299 RMK A01 T03960149  RH  024%=      5-min Rain = 0
KHA3 141718Z 22007KT 40/15 A299 RMK A01 T03980147  RH  023%=      5-min Rain = 0
KHA3 141719Z 21009KT 40/15 A299 RMK A01 T04000147  RH  023%=      5-min Rain = 0
KHA3 141720Z 23007KT 40/15 A299 RMK A01 T04000145  RH  022%=      5-min Rain = 0
KHA3 141721Z 21004KT 40/15 A299 RMK A01 T03960146  RH  023%=      5-min Rain = 0
KHA3 141722Z 20006KT 40/15 A299 RMK A01 T03960146  RH  023%=      5-min Rain = 0
KHA3 141723Z 20005KT 40/15 A299 RMK A01 T03970145  RH  023%=      5-min Rain = 0
KHA3 141724Z 21008KT 40/15 A299 RMK A01 T03980146  RH  023%=      5-min Rain = 0
KHA3 141725Z 27013KT 40/15 A2989 RMK A01 T04040148  RH  022%=      5-min Rain = 0
KHA3 141726Z 29009KT 41/15 A299 RMK A01 T04100145  RH  021%=      5-min Rain = 0
KHA3 141727Z 31007KT 41/15 A299 RMK A01 T04070145  RH  021%=      5-min Rain = 0
KHA3 141728Z 27007KT 41/15 A299 RMK A01 T04070147  RH  022%=      5-min Rain = 0
KHA3 141729Z 24012KT 41/14 A299 RMK A01 T04080144  RH  021%=      5-min Rain = 0
KHA3 141730Z 25009KT 40/14 A299 RMK A01 T04040142  RH  022%=      5-min Rain = 0
KHA3 141731Z 24009KT 40/14 A299 RMK A01 T04000142  RH  022%=      5-min Rain = 0
KHA3 141732Z 23008KT 40/14 A299 RMK A01 T03980142  RH  022%=      5-min Rain = 0
KHA3 141733Z 21006KT 40/14 A299 RMK A01 T04000142  RH  022%=      5-min Rain = 0
KHA3 141734Z 23003KT 40/14 A299 RMK A01 T04000141  RH  022%=      5-min Rain = 0
KHA3 141735Z 31003KT 40/14 A299 RMK A01 T03990143  RH  022%=      5-min Rain = 0
KHA3 141736Z 31005KT 40/14 A299 RMK A01 T04020143  RH  022%=      5-min Rain = 0
KHA3 141737Z 30006KT 40/14 A299 RMK A01 T04040143  RH  022%=      5-min Rain = 0
KHA3 141738Z 33003KT 41/14 A299 RMK A01 T04050142  RH  021%=      5-min Rain = 0
KHA3 141739Z 35001KT 41/14 A299 RMK A01 T04050143  RH  022%=      5-min Rain = 0
KHA3 141740Z 27001KT 41/14 A299 RMK A01 T04070143  RH  021%=      5-min Rain = 0
KHA3 141741Z 26003KT 41/14 A299 RMK A01 T04070142  RH  021%=      5-min Rain = 0
KHA3 141742Z 30003KT 41/14 A299 RMK A01 T04050142  RH  021%=      5-min Rain = 0
KHA3 141743Z 27001KT 40/14 A299 RMK A01 T04010140  RH  021%=      5-min Rain = 0
KHA3 141744Z 16000KT 40/14 A299 RMK A01 T04010140  RH  022%=      5-min Rain = 0
KHA3 141745Z 19001KT 40/14 A299 RMK A01 T04010141  RH  022%=      5-min Rain = 0
KHA3 141746Z 16002KT 40/14 A299 RMK A01 T04030140  RH  021%=      5-min Rain = 0
KHA3 141747Z 18002KT 40/14 A2989 RMK A01 T04030141  RH  021%=      5-min Rain = 0
KHA3 141748Z 21003KT 40/14 A2989 RMK A01 T04040140  RH  021%=      5-min Rain = 0
KHA3 141749Z 22002KT 40/14 A2989 RMK A01 T04040142  RH  021%=      5-min Rain = 0
KHA3 141750Z 16000KT 41/14 A2989 RMK A01 T04050140  RH  021%=      5-min Rain = 0
KHA3 141751Z 24001KT 41/14 A2989 RMK A01 T04090141  RH  021%=      5-min Rain = 0
KHA3 141752Z 27002KT 41/14 A2989 RMK A01 T04110141  RH  021%=      5-min Rain = 0
KHA3 141753Z 31006KT 41/14 A299 RMK A01 T04110138  RH  020%=      5-min Rain = 0
KHA3 141754Z 32006KT 41/13 A2989 RMK A01 T04110133  RH  019%=      5-min Rain = 0
KHA3 141755Z 30008KT 41/13 A2989 RMK A01 T04120131  RH  019%=      5-min Rain = 0
KHA3 141756Z 31010KT 41/13 A2989 RMK A01 T04120131  RH  019%=      5-min Rain = 0
KHA3 141757Z 31009KT 41/13 A2989 RMK A01 T04130129  RH  019%=      5-min Rain = 0
KHA3 141758Z 33008G14KT 41/13 A2989 RMK A01 T04110130  RH  019%=      5-min Rain = 0
KHA3 141759Z 33010KT 41/13 A2989 RMK A01 T04090129  RH  019%=      5-min Rain = 0
KHA3 141800Z 34008KT 41/13 A2989 RMK A01 T04100131  RH  019%=      5-min Rain = 0
KHA3 141801Z 35010KT 42/13 A2989 RMK A01 T04150132  RH  019%=      5-min Rain = 0
KHA3 141802Z 34007KT 42/13 A2989 RMK A01 T04160129  RH  018%=      5-min Rain = 0
KHA3 141803Z 32006KT 41/13 A2989 RMK A01 T04130129  RH  019%=      5-min Rain = 0
KHA3 141804Z 31007KT 41/13 A2989 RMK A01 T04130130  RH  019%=      5-min Rain = 0
KHA3 141805Z 33006KT 42/13 A2989 RMK A01 T04160131  RH  019%=      5-min Rain = 0
KHA3 141806Z 32006KT 42/13 A2989 RMK A01 T04150128  RH  018%=      5-min Rain = 0
KHA3 141807Z 34004KT 41/13 A2989 RMK A01 T04110129  RH  019%=      5-min Rain = 0
KHA3 141808Z 36003KT 41/13 A2989 RMK A01 T04060127  RH  019%=      5-min Rain = 0
KHA3 141809Z 32004KT 40/13 A2989 RMK A01 T04030126  RH  019%=      5-min Rain = 0
KHA3 141810Z 28006KT 40/13 A2989 RMK A01 T04030129  RH  020%=      5-min Rain = 0
KHA3 141811Z 26005KT 41/13 A2989 RMK A01 T04050127  RH  019%=      5-min Rain = 0
KHA3 141812Z 26007KT 41/13 A2989 RMK A01 T04060127  RH  019%=      5-min Rain = 0
KHA3 141813Z 27007KT 41/13 A2989 RMK A01 T04050130  RH  020%=      5-min Rain = 0
KHA3 141814Z 27007KT 41/13 A2989 RMK A01 T04070129  RH  019%=      5-min Rain = 0
KHA3 141815Z 26006KT 41/13 A2989 RMK A01 T04090128  RH  019%=      5-min Rain = 0
KHA3 141816Z 26004KT 41/13 A2989 RMK A01 T04090129  RH  019%=      5-min Rain = 0
KHA3 141817Z 28004KT 41/13 A2989 RMK A01 T04110129  RH  019%=      5-min Rain = 0
KHA3 141818Z 32005KT 41/13 A2989 RMK A01 T04130131  RH  019%=      5-min Rain = 0
KHA3 141819Z 32005KT 42/13 A2989 RMK A01 T04170131  RH  019%=      5-min Rain = 0
KHA3 141820Z 33008KT 42/13 A2989 RMK A01 T04180130  RH  018%=      5-min Rain = 0
KHA3 141821Z 30008KT 42/13 A2989 RMK A01 T04170129  RH  018%=      5-min Rain = 0
KHA3 141822Z 32005KT 41/13 A2989 RMK A01 T04120129  RH  019%=      5-min Rain = 0
KHA3 141823Z 30005KT 41/13 A2989 RMK A01 T04140133  RH  019%=      5-min Rain = 0
KHA3 141824Z 29005KT 42/13 A2989 RMK A01 T04180130  RH  018%=      5-min Rain = 0
KHA3 141825Z 30004KT 42/13 A2989 RMK A01 T04160131  RH  019%=      5-min Rain = 0
KHA3 141826Z 35006KT 42/13 A2989 RMK A01 T04160131  RH  019%=      5-min Rain = 0
KHA3 141827Z 00006KT 41/13 A2989 RMK A01 T04140127  RH  018%=      5-min Rain = 0
KHA3 141828Z 02004KT 41/13 A2988 RMK A01 T04130127  RH  019%=      5-min Rain = 0
KHA3 141829Z 02003KT 41/13 A2988 RMK A01 T04120128  RH  019%=      5-min Rain = 0
KHA3 141830Z 36004G9KT 41/13 A2988 RMK A01 T04130128  RH  019%=      5-min Rain = 0
KHA3 141831Z 30008KT 42/13 A2988 RMK A01 T04150130  RH  019%=      5-min Rain = 0
KHA3 141832Z 31006KT 42/13 A2988 RMK A01 T04170131  RH  019%=      5-min Rain = 0
KHA3 141833Z 30010KT 42/13 A2988 RMK A01 T04180131  RH  018%=      5-min Rain = 0
KHA3 141834Z 29008KT 42/13 A2988 RMK A01 T04180129  RH  018%=      5-min Rain = 0
KHA3 141835Z 30010KT 42/13 A2988 RMK A01 T04170130  RH  019%=      5-min Rain = 0
KHA3 141836Z 30009KT 42/13 A2988 RMK A01 T04180131  RH  019%=      5-min Rain = 0
KHA3 141837Z 32011KT 42/13 A2988 RMK A01 T04190133  RH  019%=      5-min Rain = 0
KHA3 141838Z 33009KT 42/13 A2988 RMK A01 T04180132  RH  019%=      5-min Rain = 0
KHA3 141839Z 34009KT 42/13 A2988 RMK A01 T04170132  RH  019%=      5-min Rain = 0
KHA3 141840Z 34008KT 42/13 A2988 RMK A01 T04170131  RH  019%=      5-min Rain = 0
KHA3 141841Z 33009KT 42/13 A2988 RMK A01 T04190130  RH  018%=      5-min Rain = 0
KHA3 141842Z 34009KT 42/13 A2988 RMK A01 T04180131  RH  019%=      5-min Rain = 0
KHA3 141843Z 33007KT 42/13 A2988 RMK A01 T04170132  RH  019%=      5-min Rain = 0
KHA3 141844Z 31007KT 42/13 A2988 RMK A01 T04190131  RH  019%=      5-min Rain = 0
KHA3 141845Z 34010KT 42/13 A2988 RMK A01 T04200132  RH  019%=      5-min Rain = 0
KHA3 141846Z 33007KT 42/13 A2988 RMK A01 T04200132  RH  018%=      5-min Rain = 0
KHA3 141847Z 31008KT 42/13 A2988 RMK A01 T04200132  RH  018%=      5-min Rain = 0
KHA3 141848Z 31009KT 42/13 A2988 RMK A01 T04210130  RH  018%=      5-min Rain = 0
KHA3 141849Z 30007KT 42/13 A2988 RMK A01 T04200127  RH  018%=      5-min Rain = 0
KHA3 141850Z 31006KT 42/13 A2988 RMK A01 T04180130  RH  018%=      5-min Rain = 0
KHA3 141851Z 30006KT 42/13 A2988 RMK A01 T04220128  RH  018%=      5-min Rain = 0
KHA3 141852Z 30007KT 42/13 A2988 RMK A01 T04220131  RH  018%=      5-min Rain = 0
KHA3 141853Z 28007KT 42/13 A2988 RMK A01 T04240130  RH  018%=      5-min Rain = 0
KHA3 141854Z 30006KT 43/13 A2988 RMK A01 T04250128  RH  018%=      5-min Rain = 0
KHA3 141855Z 32006KT 42/13 A2988 RMK A01 T04240129  RH  018%=      5-min Rain = 0
KHA3 141856Z 31006KT 42/13 A2988 RMK A01 T04240132  RH  018%=      5-min Rain = 0
KHA3 141857Z 30005KT 42/13 A2988 RMK A01 T04240130  RH  018%=      5-min Rain = 0
KHA3 141858Z 30009KT 42/13 A2988 RMK A01 T04200130  RH  018%=      5-min Rain = 0
KHA3 141859Z 30005KT 42/13 A2988 RMK A01 T04180129  RH  018%=      5-min Rain = 0
KHA3 141900Z 31005KT 42/13 A2988 RMK A01 T04160128  RH  018%=      5-min Rain = 0
KHA3 141901Z 28002KT 42/13 A2988 RMK A01 T04150128  RH  018%=      5-min Rain = 0
KHA3 141902Z 28001KT 41/13 A2988 RMK A01 T04140128  RH  018%=      5-min Rain = 0
KHA3 141903Z 07002KT 42/13 A2988 RMK A01 T04160127  RH  018%=      5-min Rain = 0
KHA3 141904Z 10002KT 42/13 A2987 RMK A01 T04150128  RH  019%=      5-min Rain = 0
KHA3 141905Z 06006KT 42/13 A2987 RMK A01 T04150129  RH  019%=      5-min Rain = 0
KHA3 141906Z 04007KT 42/13 A2987 RMK A01 T04190128  RH  018%=      5-min Rain = 0
KHA3 141907Z 05005KT 42/13 A2987 RMK A01 T04180127  RH  018%=      5-min Rain = 0
KHA3 141908Z 03004KT 42/13 A2987 RMK A01 T04160127  RH  018%=      5-min Rain = 0
KHA3 141909Z 01006KT 42/13 A2987 RMK A01 T04180129  RH  018%=      5-min Rain = 0
KHA3 141910Z 02004KT 42/13 A2987 RMK A01 T04200128  RH  018%=      5-min Rain = 0
KHA3 141911Z 02004KT 42/13 A2987 RMK A01 T04200130  RH  018%=      5-min Rain = 0
KHA3 141912Z 04005KT 42/13 A2987 RMK A01 T04210128  RH  018%=      5-min Rain = 0
KHA3 141913Z 06006KT 42/13 A2987 RMK A01 T04190128  RH  018%=      5-min Rain = 0
KHA3 141914Z 06004KT 42/13 A2987 RMK A01 T04170128  RH  018%=      5-min Rain = 0
KHA3 141915Z 36002KT 42/13 A2987 RMK A01 T04160129  RH  018%=      5-min Rain = 0
KHA3 141916Z 31007KT 42/13 A2987 RMK A01 T04180130  RH  018%=      5-min Rain = 0
KHA3 141917Z 32006KT 42/13 A2987 RMK A01 T04210128  RH  018%=      5-min Rain = 0
KHA3 141918Z 28006KT 42/13 A2987 RMK A01 T04220129  RH  018%=      5-min Rain = 0
KHA3 141919Z 30006KT 42/13 A2987 RMK A01 T04230129  RH  018%=      5-min Rain = 0
KHA3 141920Z 28005KT 42/13 A2987 RMK A01 T04230128  RH  018%=      5-min Rain = 0
KHA3 141921Z 30005KT 42/13 A2987 RMK A01 T04240128  RH  018%=      5-min Rain = 0
KHA3 141922Z 31007KT 42/13 A2987 RMK A01 T04240126  RH  017%=      5-min Rain = 0
KHA3 141923Z 30007KT 42/13 A2987 RMK A01 T04230126  RH  017%=      5-min Rain = 0
KHA3 141924Z 31004KT 42/13 A2987 RMK A01 T04230126  RH  017%=      5-min Rain = 0
KHA3 141925Z 32001KT 42/12 A2986 RMK A01 T04220123  RH  017%=      5-min Rain = 0
KHA3 141926Z 01001KT 42/12 A2986 RMK A01 T04200123  RH  017%=      5-min Rain = 0
KHA3 141927Z 29002KT 42/13 A2986 RMK A01 T04200125  RH  018%=      5-min Rain = 0
KHA3 141928Z 28002KT 42/13 A2986 RMK A01 T04210126  RH  018%=      5-min Rain = 0
KHA3 141929Z 31003KT 42/13 A2986 RMK A01 T04210126  RH  018%=      5-min Rain = 0
KHA3 141930Z 32004KT 42/13 A2986 RMK A01 T04220126  RH  018%=      5-min Rain = 0
KHA3 141931Z 34004KT 42/13 A2986 RMK A01 T04200125  RH  018%=      5-min Rain = 0
KHA3 141932Z 32002KT 42/13 A2986 RMK A01 T04200126  RH  018%=      5-min Rain = 0
KHA3 141933Z 32001KT 42/13 A2986 RMK A01 T04220129  RH  018%=      5-min Rain = 0
KHA3 141934Z 33002KT 43/13 A2986 RMK A01 T04260131  RH  018%=      5-min Rain = 0
KHA3 141935Z 24002KT 43/13 A2986 RMK A01 T04290133  RH  018%=      5-min Rain = 0
KHA3 141936Z 29003KT 43/13 A2986 RMK A01 T04340133  RH  017%=      5-min Rain = 0
KHA3 141937Z 32005KT 44/13 A2986 RMK A01 T04350133  RH  017%=      5-min Rain = 0
KHA3 141938Z 34005KT 43/13 A2986 RMK A01 T04340130  RH  017%=      5-min Rain = 0
KHA3 141939Z 33005KT 43/13 A2986 RMK A01 T04300129  RH  017%=      5-min Rain = 0
KHA3 141940Z 35007KT 43/13 A2986 RMK A01 T04270129  RH  017%=      5-min Rain = 0
KHA3 141941Z 35008KT 43/13 A2985 RMK A01 T04270130  RH  018%=      5-min Rain = 0
KHA3 141942Z 35008KT 43/13 A2985 RMK A01 T04300129  RH  017%=      5-min Rain = 0
KHA3 141943Z 34008KT 43/13 A2985 RMK A01 T04290130  RH  017%=      5-min Rain = 0
KHA3 141944Z 34007KT 43/13 A2985 RMK A01 T04280132  RH  018%=      5-min Rain = 0
KHA3 141945Z 33008KT 43/13 A2985 RMK A01 T04310133  RH  018%=      5-min Rain = 0
KHA3 141946Z 32007KT 43/13 A2985 RMK A01 T04330132  RH  017%=      5-min Rain = 0
KHA3 141947Z 32007KT 43/13 A2985 RMK A01 T04340131  RH  017%=      5-min Rain = 0
KHA3 141948Z 31008KT 43/13 A2985 RMK A01 T04320129  RH  017%=      5-min Rain = 0
KHA3 141949Z 33005KT 43/13 A2985 RMK A01 T04300129  RH  017%=      5-min Rain = 0
KHA3 141950Z 34005KT 43/13 A2985 RMK A01 T04280127  RH  017%=      5-min Rain = 0
KHA3 141951Z 33007KT 43/13 A2985 RMK A01 T04260128  RH  017%=      5-min Rain = 0
KHA3 141952Z 33003KT 42/13 A2985 RMK A01 T04240126  RH  017%=      5-min Rain = 0
KHA3 141953Z 34002KT 42/13 A2985 RMK A01 T04220126  RH  018%=      5-min Rain = 0
KHA3 141954Z 00007KT 42/13 A2985 RMK A01 T04230128  RH  018%=      5-min Rain = 0
KHA3 141955Z 36007KT 43/13 A2985 RMK A01 T04270130  RH  018%=      5-min Rain = 0
KHA3 141956Z 36005KT 43/13 A2985 RMK A01 T04300130  RH  017%=      5-min Rain = 0
KHA3 141957Z 02006KT 43/13 A2985 RMK A01 T04300129  RH  017%=      5-min Rain = 0
KHA3 141958Z 02004KT 43/13 A2985 RMK A01 T04270126  RH  017%=      5-min Rain = 0
KHA3 141959Z 02003KT 42/13 A2985 RMK A01 T04240125  RH  017%=      5-min Rain = 0
KHA3 142000Z 03005KT 42/13 A2984 RMK A01 T04240127  RH  018%=      5-min Rain = 0
KHA3 142001Z 06002KT 43/13 A2984 RMK A01 T04250125  RH  017%=      5-min Rain = 0
KHA3 142002Z 36004KT 43/13 A2984 RMK A01 T04250126  RH  017%=      5-min Rain = 0
KHA3 142003Z 33007KT 43/13 A2984 RMK A01 T04270130  RH  018%=      5-min Rain = 0
KHA3 142004Z 33008KT 43/13 A2984 RMK A01 T04300127  RH  017%=      5-min Rain = 0
KHA3 142005Z 33004KT 43/12 A2984 RMK A01 T04270124  RH  017%=      5-min Rain = 0
KHA3 142006Z 35004KT 43/13 A2984 RMK A01 T04250128  RH  018%=      5-min Rain = 0
KHA3 142007Z 31004KT 43/13 A2984 RMK A01 T04300129  RH  017%=      5-min Rain = 0
KHA3 142008Z 28007KT 43/13 A2984 RMK A01 T04330128  RH  017%=      5-min Rain = 0
KHA3 142009Z 28007KT 44/13 A2984 RMK A01 T04350129  RH  017%=      5-min Rain = 0
KHA3 142010Z 29006KT 44/13 A2984 RMK A01 T04360128  RH  017%=      5-min Rain = 0
KHA3 142011Z 28004KT 43/13 A2984 RMK A01 T04330125  RH  017%=      5-min Rain = 0
KHA3 142012Z 30004KT 43/13 A2984 RMK A01 T04310126  RH  017%=      5-min Rain = 0
KHA3 142013Z 30005KT 43/13 A2984 RMK A01 T04310127  RH  017%=      5-min Rain = 0
KHA3 142014Z 30005KT 43/13 A2984 RMK A01 T04330125  RH  017%=      5-min Rain = 0
KHA3 142015Z 30004KT 43/13 A2984 RMK A01 T04310126  RH  017%=      5-min Rain = 0
KHA3 142016Z 31006KT 43/13 A2984 RMK A01 T04300126  RH  017%=      5-min Rain = 0
KHA3 142017Z 29005KT 43/13 A2984 RMK A01 T04300126  RH  017%=      5-min Rain = 0
KHA3 142018Z 28004KT 43/13 A2984 RMK A01 T04300126  RH  017%=      5-min Rain = 0
KHA3 142019Z 30004KT 43/13 A2984 RMK A01 T04310126  RH  017%=      5-min Rain = 0
KHA3 142020Z 30006KT 43/13 A2984 RMK A01 T04330125  RH  017%=      5-min Rain = 0
KHA3 142021Z 29005KT 43/13 A2984 RMK A01 T04330126  RH  017%=      5-min Rain = 0
KHA3 142022Z 30005KT 43/12 A2984 RMK A01 T04340123  RH  016%=      5-min Rain = 0
KHA3 142023Z 32007KT 43/13 A2984 RMK A01 T04340126  RH  016%=      5-min Rain = 0
KHA3 142024Z 33007KT 44/13 A2984 RMK A01 T04370127  RH  016%=      5-min Rain = 0
KHA3 142025Z 30007KT 44/12 A2984 RMK A01 T04390123  RH  016%=      5-min Rain = 0
KHA3 142026Z 30007KT 44/12 A2983 RMK A01 T04370124  RH  016%=      5-min Rain = 0
KHA3 142027Z 31007KT 44/12 A2983 RMK A01 T04360124  RH  016%=      5-min Rain = 0
KHA3 142028Z 32005KT 44/12 A2983 RMK A01 T04350123  RH  016%=      5-min Rain = 0
KHA3 142029Z 31005KT 43/12 A2983 RMK A01 T04330123  RH  016%=      5-min Rain = 0
KHA3 142030Z 33005KT 44/12 A2983 RMK A01 T04350121  RH  016%=      5-min Rain = 0
KHA3 142031Z 32003KT 43/12 A2983 RMK A01 T04330120  RH  016%=      5-min Rain = 0
KHA3 142032Z 28003KT 43/12 A2983 RMK A01 T04320120  RH  016%=      5-min Rain = 0
KHA3 142033Z 27005KT 43/12 A2983 RMK A01 T04330123  RH  016%=      5-min Rain = 0
KHA3 142034Z 28005KT 43/12 A2983 RMK A01 T04340123  RH  016%=      5-min Rain = 0
KHA3 142035Z 29002KT 44/13 A2983 RMK A01 T04360125  RH  016%=      5-min Rain = 0
KHA3 142036Z 29006KT 44/12 A2983 RMK A01 T04390122  RH  016%=      5-min Rain = 0
KHA3 142037Z 29006KT 44/12 A2983 RMK A01 T04370124  RH  016%=      5-min Rain = 0
KHA3 142038Z 29006KT 44/12 A2983 RMK A01 T04360124  RH  016%=      5-min Rain = 0
KHA3 142039Z 29005KT 44/12 A2983 RMK A01 T04350123  RH  016%=      5-min Rain = 0
KHA3 142040Z 28004KT 43/12 A2983 RMK A01 T04320122  RH  016%=      5-min Rain = 0
KHA3 142041Z 28005G10KT 43/12 A2982 RMK A01 T04310122  RH  016%=      5-min Rain = 0
KHA3 142042Z 29007KT 43/12 A2982 RMK A01 T04300122  RH  016%=      5-min Rain = 0
KHA3 142043Z 31006KT 43/12 A2982 RMK A01 T04320122  RH  016%=      5-min Rain = 0
KHA3 142044Z 29005KT 43/12 A2982 RMK A01 T04320121  RH  016%=      5-min Rain = 0
KHA3 142045Z 25003KT 43/12 A2982 RMK A01 T04320122  RH  016%=      5-min Rain = 0
KHA3 142046Z 26002KT 43/12 A2982 RMK A01 T04330122  RH  016%=      5-min Rain = 0
KHA3 142047Z 31004KT 43/12 A2982 RMK A01 T04320121  RH  016%=      5-min Rain = 0
KHA3 142048Z 01001KT 43/12 A2982 RMK A01 T04300119  RH  016%=      5-min Rain = 0
KHA3 142049Z 27005KT 43/12 A2982 RMK A01 T04290120  RH  016%=      5-min Rain = 0
KHA3 142050Z 25005KT 43/12 A2982 RMK A01 T04280119  RH  016%=      5-min Rain = 0
KHA3 142051Z 24005KT 43/12 A2982 RMK A01 T04280119  RH  016%=      5-min Rain = 0
KHA3 142052Z 24005KT 43/12 A2982 RMK A01 T04270119  RH  016%=      5-min Rain = 0
KHA3 142053Z 28007KT 43/12 A2982 RMK A01 T04290121  RH  016%=      5-min Rain = 0
KHA3 142054Z 28005KT 43/12 A2982 RMK A01 T04300121  RH  016%=      5-min Rain = 0
KHA3 142055Z 29004KT 43/12 A2982 RMK A01 T04310120  RH  016%=      5-min Rain = 0
KHA3 142056Z 28003KT 43/12 A2982 RMK A01 T04300120  RH  016%=      5-min Rain = 0
KHA3 142057Z 24003KT 43/12 A2982 RMK A01 T04300119  RH  016%=      5-min Rain = 0
KHA3 142058Z 21002KT 43/12 A2982 RMK A01 T04290120  RH  016%=      5-min Rain = 0
KHA3 142059Z 23003KT 43/12 A2982 RMK A01 T04290121  RH  016%=      5-min Rain = 0
KHA3 142100Z 24005KT 43/12 A2982 RMK A01 T04320118  RH  016%=      5-min Rain = 0
KHA3 142101Z 26003KT 43/12 A2982 RMK A01 T04310120  RH  016%=      5-min Rain = 0
KHA3 142102Z 27003KT 43/12 A2982 RMK A01 T04320118  RH  016%=      5-min Rain = 0
KHA3 142103Z 29002KT 43/12 A2982 RMK A01 T04330118  RH  016%=      5-min Rain = 0
KHA3 142104Z 30000KT 43/12 A2982 RMK A01 T04340117  RH  015%=      5-min Rain = 0
KHA3 142105Z 11003KT 44/12 A2982 RMK A01 T04370117  RH  015%=      5-min Rain = 0
KHA3 142106Z 11003KT 44/12 A2981 RMK A01 T04380117  RH  015%=      5-min Rain = 0
KHA3 142107Z 11002KT 44/12 A2981 RMK A01 T04360117  RH  015%=      5-min Rain = 0
KHA3 142108Z 06002KT 44/12 A2981 RMK A01 T04370118  RH  015%=      5-min Rain = 0
KHA3 142109Z 36005KT 44/12 A2981 RMK A01 T04400121  RH  016%=      5-min Rain = 0
KHA3 142110Z 33010KT 44/12 A2981 RMK A01 T04420120  RH  015%=      5-min Rain = 0
KHA3 142111Z 33010KT 44/12 A2981 RMK A01 T04370119  RH  015%=      5-min Rain = 0
KHA3 142112Z 34009KT 43/12 A2981 RMK A01 T04340119  RH  016%=      5-min Rain = 0
KHA3 142113Z 34006KT 43/12 A2981 RMK A01 T04320119  RH  016%=      5-min Rain = 0
KHA3 142114Z 35009KT 43/12 A2981 RMK A01 T04330122  RH  016%=      5-min Rain = 0
KHA3 142115Z 35010KT 44/12 A2981 RMK A01 T04350119  RH  016%=      5-min Rain = 0
KHA3 142116Z 34008KT 43/12 A2981 RMK A01 T04340118  RH  016%=      5-min Rain = 0
KHA3 142117Z 36006KT 43/12 A2981 RMK A01 T04330120  RH  016%=      5-min Rain = 0
KHA3 142118Z 36004KT 43/12 A2981 RMK A01 T04330116  RH  016%=      5-min Rain = 0
KHA3 142119Z 36009KT 43/12 A2981 RMK A01 T04320119  RH  016%=      5-min Rain = 0
KHA3 142120Z 02006KT 43/12 A2981 RMK A01 T04310118  RH  016%=      5-min Rain = 0
KHA3 142121Z 05003KT 43/12 A2981 RMK A01 T04290119  RH  016%=      5-min Rain = 0
KHA3 142122Z 05003KT 43/12 A2981 RMK A01 T04300120  RH  016%=      5-min Rain = 0
KHA3 142123Z 01006KT 43/12 A2981 RMK A01 T04300120  RH  016%=      5-min Rain = 0
KHA3 142124Z 36008KT 43/12 A2981 RMK A01 T04330120  RH  016%=      5-min Rain = 0
KHA3 142125Z 00008KT 43/12 A2981 RMK A01 T04330119  RH  016%=      5-min Rain = 0
KHA3 142126Z 35006KT 43/12 A2981 RMK A01 T04310118  RH  016%=      5-min Rain = 0
KHA3 142127Z 01006KT 43/12 A2981 RMK A01 T04290118  RH  016%=      5-min Rain = 0
KHA3 142128Z 00006KT 43/12 A2981 RMK A01 T04280118  RH  016%=      5-min Rain = 0
KHA3 142129Z 35009KT 43/12 A2981 RMK A01 T04280119  RH  016%=      5-min Rain = 0
KHA3 142130Z 35007KT 43/12 A2981 RMK A01 T04290119  RH  016%=      5-min Rain = 0
KHA3 142131Z 35006KT 43/12 A2981 RMK A01 T04270118  RH  016%=      5-min Rain = 0
KHA3 142132Z 34005KT 43/12 A2981 RMK A01 T04250118  RH  016%=      5-min Rain = 0
KHA3 142133Z 34005KT 43/12 A298 RMK A01 T04260119  RH  016%=      5-min Rain = 0
KHA3 142134Z 36004KT 43/12 A298 RMK A01 T04260119  RH  016%=      5-min Rain = 0
KHA3 142135Z 35004KT 43/12 A298 RMK A01 T04270120  RH  016%=      5-min Rain = 0
KHA3 142136Z 33005KT 43/12 A298 RMK A01 T04280121  RH  017%=      5-min Rain = 0
KHA3 142137Z 34006KT 43/12 A298 RMK A01 T04290120  RH  016%=      5-min Rain = 0
KHA3 142138Z 02004KT 43/12 A298 RMK A01 T04290121  RH  016%=      5-min Rain = 0
KHA3 142139Z 04003KT 43/12 A298 RMK A01 T04290123  RH  017%=      5-min Rain = 0
KHA3 142140Z 05004KT 43/12 A298 RMK A01 T04300120  RH  016%=      5-min Rain = 0
KHA3 142141Z 06005KT 43/12 A298 RMK A01 T04290119  RH  016%=      5-min Rain = 0
KHA3 142142Z 05003KT 43/12 A298 RMK A01 T04260118  RH  016%=      5-min Rain = 0
KHA3 142143Z 08002KT 43/12 A298 RMK A01 T04250119  RH  016%=      5-min Rain = 0
KHA3 142144Z 09003KT 43/12 A298 RMK A01 T04250119  RH  016%=      5-min Rain = 0
KHA3 142145Z 08004KT 43/12 A298 RMK A01 T04250121  RH  017%=      5-min Rain = 0
KHA3 142146Z 06004KT 43/12 A2979 RMK A01 T04260120  RH  017%=      5-min Rain = 0
KHA3 142147Z 06004KT 43/12 A2979 RMK A01 T04260120  RH  017%=      5-min Rain = 0
KHA3 142148Z 09003KT 43/12 A2979 RMK A01 T04260118  RH  016%=      5-min Rain = 0
KHA3 142149Z 03001KT 43/12 A2979 RMK A01 T04260120  RH  017%=      5-min Rain = 0
KHA3 142150Z 02005KT 43/12 A2979 RMK A01 T04270119  RH  016%=      5-min Rain = 0
KHA3 142151Z 01004KT 43/12 A2979 RMK A01 T04250117  RH  016%=      5-min Rain = 0
KHA3 142152Z 03002KT 42/12 A2979 RMK A01 T04220117  RH  017%=      5-min Rain = 0
KHA3 142153Z 30000KT 42/12 A2979 RMK A01 T04220116  RH  016%=      5-min Rain = 0
KHA3 142154Z 04000KT 42/12 A2979 RMK A01 T04220118  RH  017%=      5-min Rain = 0
KHA3 142155Z 04002KT 42/12 A2979 RMK A01 T04220118  RH  017%=      5-min Rain = 0
KHA3 142156Z 03003KT 42/12 A2979 RMK A01 T04220119  RH  017%=      5-min Rain = 0
KHA3 142157Z 07006KT 42/12 A2979 RMK A01 T04220119  RH  017%=      5-min Rain = 0
KHA3 142158Z 07006KT 42/12 A2979 RMK A01 T04230120  RH  017%=      5-min Rain = 0
KHA3 142159Z 06006KT 42/12 A2979 RMK A01 T04230118  RH  017%=      5-min Rain = 0
KHA3 142200Z 07008KT 42/12 A298 RMK A01 T04220120  RH  017%=      5-min Rain = 0
KHA3 142201Z 08005KT 42/12 A298 RMK A01 T04210118  RH  017%=      5-min Rain = 0
KHA3 142202Z 10004KT 42/12 A298 RMK A01 T04200120  RH  017%=      5-min Rain = 0
KHA3 142203Z 11004KT 42/12 A298 RMK A01 T04200122  RH  017%=      5-min Rain = 0
KHA3 142204Z 09007KT 42/12 A298 RMK A01 T04210121  RH  017%=      5-min Rain = 0
KHA3 142205Z 08006KT 42/12 A298 RMK A01 T04210120  RH  017%=      5-min Rain = 0
KHA3 142206Z 09005KT 42/12 A298 RMK A01 T04210119  RH  017%=      5-min Rain = 0
KHA3 142207Z 07004KT 42/12 A298 RMK A01 T04190118  RH  017%=      5-min Rain = 0
KHA3 142208Z 07008KT 42/12 A298 RMK A01 T04190120  RH  017%=      5-min Rain = 0
KHA3 142209Z 07008KT 42/12 A298 RMK A01 T04190118  RH  017%=      5-min Rain = 0
KHA3 142210Z 07006KT 42/12 A298 RMK A01 T04190119  RH  017%=      5-min Rain = 0
KHA3 142211Z 07005KT 42/12 A298 RMK A01 T04190118  RH  017%=      5-min Rain = 0
KHA3 142212Z 07004KT 42/12 A298 RMK A01 T04190117  RH  017%=      5-min Rain = 0
KHA3 142213Z 03004KT 42/12 A298 RMK A01 T04190119  RH  017%=      5-min Rain = 0
KHA3 142214Z 03003KT 42/12 A298 RMK A01 T04190118  RH  017%=      5-min Rain = 0
KHA3 142215Z 03004KT 42/12 A2981 RMK A01 T04190118  RH  017%=      5-min Rain = 0
KHA3 142216Z 03004KT 42/12 A2981 RMK A01 T04190118  RH  017%=      5-min Rain = 0
KHA3 142217Z 04004KT 42/12 A2981 RMK A01 T04200118  RH  017%=      5-min Rain = 0
KHA3 142218Z 06007KT 42/12 A2981 RMK A01 T04200119  RH  017%=      5-min Rain = 0
KHA3 142219Z 07005KT 42/12 A2981 RMK A01 T04200117  RH  017%=      5-min Rain = 0
KHA3 142220Z 08005KT 42/12 A2981 RMK A01 T04200119  RH  017%=      5-min Rain = 0
KHA3 142221Z 09006KT 42/12 A2981 RMK A01 T04190117  RH  017%=      5-min Rain = 0
KHA3 142222Z 11004KT 42/12 A2981 RMK A01 T04190117  RH  017%=      5-min Rain = 0
KHA3 142223Z 10004KT 42/12 A2981 RMK A01 T04190118  RH  017%=      5-min Rain = 0
KHA3 142224Z 08003KT 42/12 A2981 RMK A01 T04180119  RH  017%=      5-min Rain = 0
KHA3 142225Z 06004KT 42/12 A2981 RMK A01 T04180123  RH  018%=      5-min Rain = 0
KHA3 142226Z 07003KT 42/12 A2981 RMK A01 T04180120  RH  017%=      5-min Rain = 0
KHA3 142227Z 05004KT 42/12 A2981 RMK A01 T04190121  RH  017%=      5-min Rain = 0
KHA3 142228Z 05004KT 42/12 A2981 RMK A01 T04190116  RH  017%=      5-min Rain = 0
KHA3 142229Z 04004KT 42/12 A2981 RMK A01 T04180117  RH  017%=      5-min Rain = 0
KHA3 142230Z 03004KT 42/12 A2981 RMK A01 T04170117  RH  017%=      5-min Rain = 0
KHA3 142231Z 03004KT 42/12 A2981 RMK A01 T04170117  RH  017%=      5-min Rain = 0
KHA3 142232Z 03002KT 42/12 A2981 RMK A01 T04170118  RH  017%=      5-min Rain = 0
KHA3 142233Z 01002KT 42/12 A2981 RMK A01 T04170119  RH  017%=      5-min Rain = 0
KHA3 142234Z 00001KT 42/12 A2981 RMK A01 T04160119  RH  017%=      5-min Rain = 0
KHA3 142235Z 01001KT 42/12 A2981 RMK A01 T04160116  RH  017%=      5-min Rain = 0
KHA3 142236Z 05001KT 42/12 A2981 RMK A01 T04160117  RH  017%=      5-min Rain = 0
KHA3 142237Z 08001KT 42/12 A2981 RMK A01 T04160118  RH  017%=      5-min Rain = 0
KHA3 142238Z 07001KT 42/12 A2981 RMK A01 T04160119  RH  017%=      5-min Rain = 0
KHA3 142239Z 05001KT 42/12 A2981 RMK A01 T04150118  RH  017%=      5-min Rain = 0
KHA3 142240Z 05001KT 42/12 A2981 RMK A01 T04150120  RH  018%=      5-min Rain = 0
KHA3 142241Z 01001KT 41/12 A2981 RMK A01 T04140121  RH  018%=      5-min Rain = 0
KHA3 142242Z 36001KT 41/12 A2981 RMK A01 T04140120  RH  018%=      5-min Rain = 0
KHA3 142243Z 01001KT 41/12 A2981 RMK A01 T04130121  RH  018%=      5-min Rain = 0
KHA3 142244Z 02002KT 41/12 A2981 RMK A01 T04130121  RH  018%=      5-min Rain = 0
KHA3 142245Z 01002KT 41/12 A2981 RMK A01 T04130123  RH  018%=      5-min Rain = 0
KHA3 142246Z 02001KT 41/12 A2981 RMK A01 T04120120  RH  018%=      5-min Rain = 0
KHA3 142247Z 02002KT 41/12 A2981 RMK A01 T04120121  RH  018%=      5-min Rain = 0
KHA3 142248Z 03002KT 41/12 A2981 RMK A01 T04110122  RH  018%=      5-min Rain = 0
KHA3 142249Z 03002KT 41/12 A2981 RMK A01 T04100121  RH  018%=      5-min Rain = 0
KHA3 142250Z 01002KT 41/12 A2981 RMK A01 T04100124  RH  018%=      5-min Rain = 0
KHA3 142251Z 36002KT 41/12 A2981 RMK A01 T04090123  RH  018%=      5-min Rain = 0
KHA3 142252Z 00002KT 41/12 A2982 RMK A01 T04090122  RH  018%=      5-min Rain = 0
KHA3 142253Z 35002KT 41/12 A2982 RMK A01 T04090120  RH  018%=      5-min Rain = 0
KHA3 142254Z 35002KT 41/12 A2982 RMK A01 T04090121  RH  018%=      5-min Rain = 0
KHA3 142255Z 35002KT 41/13 A2982 RMK A01 T04080126  RH  019%=      5-min Rain = 0
KHA3 142256Z 32003KT 41/13 A2982 RMK A01 T04070128  RH  019%=      5-min Rain = 0
KHA3 142257Z 29005KT 41/13 A2983 RMK A01 T04060128  RH  019%=      5-min Rain = 0
KHA3 142258Z 28011G16KT 41/13 A2984 RMK A01 T04050132  RH  020%=      5-min Rain = 0
KHA3 142259Z 28018KT 40/13 A2984 RMK A01 T03980128  RH  020%=      5-min Rain = 0
KHA3 142300Z 27018KT 38/13 A2984 RMK A01 T03780127  RH  022%=      5-min Rain = 0
KHA3 142301Z 26020G25KT 36/13 A2984 RMK A01 T03630127  RH  024%=      5-min Rain = 0
KHA3 142302Z 25021KT 35/13 A2984 RMK A01 T03530127  RH  026%=      5-min Rain = 0
KHA3 142303Z 26020KT 35/13 A2984 RMK A01 T03480128  RH  027%=      5-min Rain = 0
KHA3 142304Z 26019KT 35/13 A2984 RMK A01 T03450129  RH  027%=      5-min Rain = 0
KHA3 142305Z 26022KT 34/13 A2984 RMK A01 T03420129  RH  028%=      5-min Rain = 0
KHA3 142306Z 26023KT 34/13 A2984 RMK A01 T03420129  RH  028%=      5-min Rain = 0
KHA3 142307Z 26021KT 34/13 A2984 RMK A01 T03430127  RH  027%=      5-min Rain = 0
KHA3 142308Z 26019KT 34/13 A2984 RMK A01 T03430128  RH  027%=      5-min Rain = 0
KHA3 142309Z 25016G23KT 34/13 A2984 RMK A01 T03440128  RH  027%=      5-min Rain = 0
KHA3 142310Z 26020G26KT 35/13 A2985 RMK A01 T03450128  RH  027%=      5-min Rain = 0
KHA3 142311Z 26017KT 35/13 A2985 RMK A01 T03480128  RH  026%=      5-min Rain = 0
KHA3 142312Z 26015KT 35/13 A2985 RMK A01 T03490128  RH  026%=      5-min Rain = 0
KHA3 142313Z 26015KT 35/13 A2985 RMK A01 T03490128  RH  026%=      5-min Rain = 0
KHA3 142314Z 27017KT 35/13 A2986 RMK A01 T03480128  RH  026%=      5-min Rain = 0
KHA3 142315Z 27019G27KT 35/13 A2986 RMK A01 T03490129  RH  027%=      5-min Rain = 0
KHA3 142316Z 27026KT 35/14 A2986 RMK A01 T03500136  RH  028%=      5-min Rain = 0
KHA3 142317Z 27023G29KT 35/14 A2986 RMK A01 T03520139  RH  028%=      5-min Rain = 0
KHA3 142318Z 27026KT 35/14 A2986 RMK A01 T03520144  RH  029%=      5-min Rain = 0
KHA3 142319Z 28025G31KT 35/15 A2986 RMK A01 T03500145  RH  029%=      5-min Rain = 0
KHA3 142320Z 27027KT 35/15 A2986 RMK A01 T03480147  RH  030%=      5-min Rain = 0
KHA3 142321Z 27027G33KT 35/15 A2986 RMK A01 T03450148  RH  031%=      5-min Rain = 0
KHA3 142322Z 28023G30KT 34/15 A2985 RMK A01 T03430150  RH  031%=      5-min Rain = 0
KHA3 142323Z 27026KT 34/15 A2985 RMK A01 T03400150  RH  032%=      5-min Rain = 0
KHA3 142324Z 28029G34KT 34/15 A2985 RMK A01 T03390152  RH  033%=      5-min Rain = 0
KHA3 142325Z 28037G43KT 34/15 A2985 RMK A01 T03360152  RH  033%=      5-min Rain = 0
KHA3 142326Z 28029G36KT 33/15 A2985 RMK A01 T03340154  RH  034%=      5-min Rain = 0
KHA3 142327Z 27033G38KT 33/15 A2985 RMK A01 T03320154  RH  034%=      5-min Rain = 0
KHA3 142328Z 27033G38KT 33/15 A2985 RMK A01 T03320153  RH  034%=      5-min Rain = 0
KHA3 142329Z 28033G39KT 33/15 A2985 RMK A01 T03320152  RH  034%=      5-min Rain = 0
KHA3 142330Z 28031G37KT 33/15 A2985 RMK A01 T03330150  RH  033%=      5-min Rain = 0
KHA3 142331Z 28028G39KT 33/15 A2985 RMK A01 T03340150  RH  033%=      5-min Rain = 0
KHA3 142332Z 29031G38KT 33/15 A2986 RMK A01 T03340149  RH  033%=      5-min Rain = 0
KHA3 142333Z 28032G39KT 34/15 A2985 RMK A01 T03360148  RH  032%=      5-min Rain = 0
KHA3 142334Z 28032G37KT 34/15 A2986 RMK A01 T03370147  RH  032%=      5-min Rain = 0
KHA3 142335Z 28032G37KT 34/15 A2986 RMK A01 T03370149  RH  032%=      5-min Rain = 0
KHA3 142336Z 28030KT 34/15 A2986 RMK A01 T03350149  RH  033%=      5-min Rain = 0
KHA3 142337Z 28028G33KT 33/15 A2986 RMK A01 T03340149  RH  033%=      5-min Rain = 0
KHA3 142338Z 28031KT 33/15 A2986 RMK A01 T03330150  RH  033%=      5-min Rain = 0
KHA3 142339Z 28030G36KT 33/15 A2986 RMK A01 T03310151  RH  034%=      5-min Rain = 0
KHA3 142340Z 28028KT 33/15 A2986 RMK A01 T03300153  RH  035%=      5-min Rain = 0
KHA3 142341Z 28027KT 33/15 A2986 RMK A01 T03280154  RH  035%=      5-min Rain = 0
KHA3 142342Z 28028G33KT 33/15 A2986 RMK A01 T03280154  RH  035%=      5-min Rain = 0
KHA3 142343Z 28029G34KT 33/15 A2986 RMK A01 T03280154  RH  035%=      5-min Rain = 0
KHA3 142344Z 28026KT 33/16 A2986 RMK A01 T03270155  RH  035%=      5-min Rain = 0
KHA3 142345Z 27027G34KT 33/16 A2986 RMK A01 T03260155  RH  036%=      5-min Rain = 0
KHA3 142346Z 28029G34KT 33/16 A2986 RMK A01 T03250155  RH  036%=      5-min Rain = 0
KHA3 142347Z 27029G34KT 33/16 A2986 RMK A01 T03250155  RH  036%=      5-min Rain = 0
KHA3 142348Z 28027G34KT 33/16 A2986 RMK A01 T03250156  RH  036%=      5-min Rain = 0
KHA3 142349Z 27025KT 33/16 A2986 RMK A01 T03250159  RH  037%=      5-min Rain = 0
KHA3 142350Z 27029KT 32/16 A2986 RMK A01 T03230161  RH  038%=      5-min Rain = 0
KHA3 142351Z 28026G31KT 32/16 A2986 RMK A01 T03210162  RH  038%=      5-min Rain = 0
KHA3 142352Z 28028KT 32/16 A2986 RMK A01 T03200163  RH  039%=      5-min Rain = 0
KHA3 142353Z 27025G32KT 32/16 A2986 RMK A01 T03190163  RH  039%=      5-min Rain = 0
KHA3 142354Z 28023KT 32/16 A2986 RMK A01 T03190163  RH  039%=      5-min Rain = 0
KHA3 142355Z 27020KT 32/16 A2986 RMK A01 T03200163  RH  039%=      5-min Rain = 0
KHA3 142356Z 27023KT 32/16 A2986 RMK A01 T03190162  RH  039%=      5-min Rain = 0
KHA3 142357Z 28022G27KT 32/16 A2986 RMK A01 T03200163  RH  039%=      5-min Rain = 0
KHA3 142358Z 27021G27KT 32/16 A2986 RMK A01 T03190164  RH  039%=      5-min Rain = 0
KHA3 142359Z 27023KT 32/16 A2986 RMK A01 T03190164  RH  039%=      5-min Rain = 0
KHA3 150000Z 28025KT 32/16 A2987 RMK A01 T03180164  RH  040%=      5-min Rain = 0
KHA3 150001Z 27025KT 32/17 A2986 RMK A01 T03170165  RH  040%=      5-min Rain = 0
KHA3 150002Z 27021KT 31/17 A2986 RMK A01 T03140167  RH  041%=      5-min Rain = 0
KHA3 150003Z 27020KT 31/17 A2986 RMK A01 T03140165  RH  041%=      5-min Rain = 0
KHA3 150004Z 27022KT 31/16 A2987 RMK A01 T03140163  RH  040%=      5-min Rain = 0
KHA3 150005Z 27022KT 32/16 A2987 RMK A01 T03150162  RH  040%=      5-min Rain = 0
KHA3 150006Z 27019KT 32/16 A2987 RMK A01 T03150163  RH  040%=      5-min Rain = 0
KHA3 150007Z 26020G26KT 32/16 A2988 RMK A01 T03150162  RH  040%=      5-min Rain = 0
KHA3 150008Z 26022KT 31/16 A2988 RMK A01 T03140160  RH  039%=      5-min Rain = 0
KHA3 150009Z 26020KT 32/16 A2988 RMK A01 T03150159  RH  039%=      5-min Rain = 0
KHA3 150010Z 26022KT 32/16 A2988 RMK A01 T03150162  RH  040%=      5-min Rain = 0
KHA3 150011Z 26022KT 31/16 A2988 RMK A01 T03140161  RH  040%=      5-min Rain = 0
KHA3 150012Z 27021KT 31/16 A2988 RMK A01 T03140158  RH  039%=      5-min Rain = 0
KHA3 150013Z 26022KT 32/16 A2988 RMK A01 T03150155  RH  038%=      5-min Rain = 0
KHA3 150014Z 26020KT 32/15 A2988 RMK A01 T03180154  RH  037%=      5-min Rain = 0
KHA3 150015Z 26025KT 32/15 A2988 RMK A01 T03200149  RH  036%=      5-min Rain = 0
KHA3 150016Z 27023KT 32/15 A2988 RMK A01 T03230147  RH  035%=      5-min Rain = 0
KHA3 150017Z 27025KT 33/15 A2987 RMK A01 T03250146  RH  034%=      5-min Rain = 0
KHA3 150018Z 26029KT 33/15 A2987 RMK A01 T03260147  RH  034%=      5-min Rain = 0
KHA3 150019Z 27026G31KT 33/15 A2987 RMK A01 T03250148  RH  034%=      5-min Rain = 0
KHA3 150020Z 27028G34KT 32/15 A2987 RMK A01 T03240150  RH  035%=      5-min Rain = 0
KHA3 150021Z 27029KT 32/15 A2987 RMK A01 T03230151  RH  035%=      5-min Rain = 0
KHA3 150022Z 27026G32KT 32/15 A2987 RMK A01 T03230152  RH  036%=      5-min Rain = 0
KHA3 150023Z 27024G30KT 32/15 A2987 RMK A01 T03200152  RH  036%=      5-min Rain = 0
KHA3 150024Z 26025G31KT 32/15 A2987 RMK A01 T03200151  RH  036%=      5-min Rain = 0
KHA3 150025Z 26026KT 32/15 A2987 RMK A01 T03210151  RH  036%=      5-min Rain = 0
KHA3 150026Z 26022G28KT 32/15 A2987 RMK A01 T03210151  RH  036%=      5-min Rain = 0
KHA3 150027Z 25022G27KT 32/15 A2987 RMK A01 T03200150  RH  036%=      5-min Rain = 0
KHA3 150028Z 25021KT 32/15 A2987 RMK A01 T03210150  RH  036%=      5-min Rain = 0
KHA3 150029Z 26019G24KT 32/15 A2987 RMK A01 T03220146  RH  035%=      5-min Rain = 0
KHA3 150030Z 27015KT 32/15 A2987 RMK A01 T03240146  RH  034%=      5-min Rain = 0
KHA3 150031Z 26015KT 33/14 A2987 RMK A01 T03260143  RH  033%=      5-min Rain = 0
KHA3 150032Z 27014KT 33/14 A2987 RMK A01 T03280142  RH  032%=      5-min Rain = 0
KHA3 150033Z 29026G31KT 33/12 A2988 RMK A01 T03330118  RH  027%=      5-min Rain = 0
KHA3 150034Z 29027G35KT 36/10 A2988 RMK A01 T03550100  RH  021%=      5-min Rain = 0
KHA3 150035Z 29029KT 37/10 A2988 RMK A01 T03680103  RH  020%=      5-min Rain = 0
KHA3 150036Z 29027G32KT 37/11 A2989 RMK A01 T03700106  RH  020%=      5-min Rain = 0
KHA3 150037Z 29022KT 37/11 A2989 RMK A01 T03700108  RH  021%=      5-min Rain = 0
KHA3 150038Z 24022G31KT 37/10 A2988 RMK A01 T03690104  RH  020%=      5-min Rain = 0
KHA3 150039Z 25012G17KT 38/10 A2989 RMK A01 T03750098  RH  019%=      5-min Rain = 0
KHA3 150040Z 26013KT 38/11 A2989 RMK A01 T03770105  RH  020%=      5-min Rain = 0
KHA3 150041Z 25016G22KT 37/11 A2989 RMK A01 T03730111  RH  021%=      5-min Rain = 0
KHA3 150042Z 26017KT 37/11 A2988 RMK A01 T03670114  RH  022%=      5-min Rain = 0
KHA3 150043Z 26019KT 36/11 A2988 RMK A01 T03640112  RH  022%=      5-min Rain = 0
KHA3 150044Z 27016KT 36/11 A2988 RMK A01 T03640111  RH  022%=      5-min Rain = 0
KHA3 150045Z 26022G27KT 36/11 A2988 RMK A01 T03640113  RH  022%=      5-min Rain = 0
KHA3 150046Z 25027KT 37/11 A2988 RMK A01 T03650108  RH  021%=      5-min Rain = 0
KHA3 150047Z 26024KT 37/11 A2988 RMK A01 T03680109  RH  021%=      5-min Rain = 0
KHA3 150048Z 26025G30KT 37/11 A2988 RMK A01 T03680109  RH  021%=      5-min Rain = 0
KHA3 150049Z 25023KT 37/11 A2988 RMK A01 T03680107  RH  021%=      5-min Rain = 0
KHA3 150050Z 25025G33KT 37/11 A2987 RMK A01 T03690107  RH  021%=      5-min Rain = 0
KHA3 150051Z 24023G28KT 37/11 A2987 RMK A01 T03700108  RH  021%=      5-min Rain = 0
KHA3 150052Z 23019KT 37/11 A2987 RMK A01 T03690112  RH  021%=      5-min Rain = 0
KHA3 150053Z 23020G26KT 37/11 A2987 RMK A01 T03660111  RH  022%=      5-min Rain = 0
KHA3 150054Z 23018G23KT 37/11 A2987 RMK A01 T03660110  RH  021%=      5-min Rain = 0
KHA3 150055Z 20015KT 37/11 A2987 RMK A01 T03660110  RH  021%=      5-min Rain = 0
KHA3 150056Z 20018KT 37/10 A2987 RMK A01 T03660104  RH  021%=      5-min Rain = 0
KHA3 150057Z 20017G25KT 37/10 A2987 RMK A01 T03680103  RH  020%=      5-min Rain = 0
KHA3 150058Z 20019KT 37/10 A2987 RMK A01 T03690104  RH  020%=      5-min Rain = 0
KHA3 150059Z 20019KT 37/10 A2987 RMK A01 T03700104  RH  020%=      5-min Rain = 0
KHA3 150100Z 20021KT 37/10 A2987 RMK A01 T03700103  RH  020%=      5-min Rain = 0
KHA3 150101Z 20018KT 37/10 A2987 RMK A01 T03690104  RH  020%=      5-min Rain = 0
KHA3 150102Z 20019KT 37/10 A2987 RMK A01 T03690098  RH  019%=      5-min Rain = 0
KHA3 150103Z 20018KT 37/09 A2987 RMK A01 T03730090  RH  018%=      5-min Rain = 0
KHA3 150104Z 19021KT 38/09 A2987 RMK A01 T03760091  RH  018%=      5-min Rain = 0
KHA3 150105Z 19021KT 38/10 A2986 RMK A01 T03760099  RH  019%=      5-min Rain = 0
KHA3 150106Z 19020G25KT 37/10 A2987 RMK A01 T03720101  RH  019%=      5-min Rain = 0
KHA3 150107Z 19017KT 37/10 A2987 RMK A01 T03700098  RH  019%=      5-min Rain = 0
KHA3 150108Z 19019G24KT 37/10 A2986 RMK A01 T03690098  RH  019%=      5-min Rain = 0
KHA3 150109Z 22018KT 37/10 A2986 RMK A01 T03680099  RH  020%=      5-min Rain = 0
KHA3 150110Z 21020G28KT 37/10 A2987 RMK A01 T03680101  RH  020%=      5-min Rain = 0
KHA3 150111Z 22023KT 37/10 A2987 RMK A01 T03680102  RH  020%=      5-min Rain = 0
KHA3 150112Z 23017KT 37/10 A2987 RMK A01 T03690102  RH  020%=      5-min Rain = 0
KHA3 150113Z 21016KT 37/10 A2987 RMK A01 T03690102  RH  020%=      5-min Rain = 0
KHA3 150114Z 22012G17KT 37/10 A2988 RMK A01 T03690103  RH  020%=      5-min Rain = 0
KHA3 150115Z 22014KT 37/11 A2988 RMK A01 T03670106  RH  021%=      5-min Rain = 0
KHA3 150116Z 22012KT 37/11 A2988 RMK A01 T03650109  RH  021%=      5-min Rain = 0
KHA3 150117Z 21014KT 36/11 A2988 RMK A01 T03620109  RH  022%=      5-min Rain = 0
KHA3 150118Z 20009KT 36/11 A2988 RMK A01 T03610105  RH  021%=      5-min Rain = 0
KHA3 150119Z 18007KT 36/11 A2988 RMK A01 T03610106  RH  021%=      5-min Rain = 0
KHA3 150120Z 18008KT 36/11 A2988 RMK A01 T03600110  RH  022%=      5-min Rain = 0
KHA3 150121Z 20010KT 36/11 A2988 RMK A01 T03580111  RH  022%=      5-min Rain = 0
KHA3 150122Z 20010KT 36/11 A2988 RMK A01 T03560111  RH  023%=      5-min Rain = 0
KHA3 150123Z 21007KT 36/11 A2988 RMK A01 T03550111  RH  023%=      5-min Rain = 0
KHA3 150124Z 21007KT 35/11 A2988 RMK A01 T03540111  RH  023%=      5-min Rain = 0
KHA3 150125Z 22008KT 35/11 A2988 RMK A01 T03530111  RH  023%=      5-min Rain = 0
KHA3 150126Z 21009KT 35/11 A2988 RMK A01 T03540111  RH  023%=      5-min Rain = 0
KHA3 150127Z 22009KT 35/11 A2988 RMK A01 T03540111  RH  023%=      5-min Rain = 0
KHA3 150128Z 22009KT 35/11 A2988 RMK A01 T03540111  RH  023%=      5-min Rain = 0
KHA3 150129Z 22012KT 35/11 A2988 RMK A01 T03530111  RH  023%=      5-min Rain = 0
KHA3 150130Z 23012KT 35/11 A2988 RMK A01 T03540109  RH  023%=      5-min Rain = 0
KHA3 150131Z 24011KT 36/11 A2988 RMK A01 T03550110  RH  023%=      5-min Rain = 0
KHA3 150132Z 23012KT 36/11 A2988 RMK A01 T03560111  RH  023%=      5-min Rain = 0
KHA3 150133Z 23011KT 36/11 A2988 RMK A01 T03550113  RH  023%=      5-min Rain = 0
KHA3 150134Z 23010KT 35/11 A2988 RMK A01 T03530114  RH  023%=      5-min Rain = 0
KHA3 150135Z 23012KT 35/12 A2988 RMK A01 T03520115  RH  024%=      5-min Rain = 0
KHA3 150136Z 23011KT 35/12 A2989 RMK A01 T03510116  RH  024%=      5-min Rain = 0
KHA3 150137Z 23011G16KT 35/12 A2989 RMK A01 T03500118  RH  025%=      5-min Rain = 0
KHA3 150138Z 23015KT 35/12 A2989 RMK A01 T03480120  RH  025%=      5-min Rain = 0
KHA3 150139Z 23015KT 35/12 A2989 RMK A01 T03470121  RH  025%=      5-min Rain = 0
KHA3 150140Z 22016KT 35/12 A2989 RMK A01 T03470119  RH  025%=      5-min Rain = 0
KHA3 150141Z 22014KT 35/12 A2989 RMK A01 T03480118  RH  025%=      5-min Rain = 0
KHA3 150142Z 23015KT 35/12 A2989 RMK A01 T03480117  RH  025%=      5-min Rain = 0
KHA3 150143Z 23016KT 35/12 A2989 RMK A01 T03490118  RH  025%=      5-min Rain = 0
KHA3 150144Z 23013KT 35/12 A2989 RMK A01 T03490120  RH  025%=      5-min Rain = 0
KHA3 150145Z 23014KT 35/12 A2989 RMK A01 T03470120  RH  025%=      5-min Rain = 0
KHA3 150146Z 23012KT 35/12 A2989 RMK A01 T03460121  RH  026%=      5-min Rain = 0
KHA3 150147Z 23011KT 35/12 A2989 RMK A01 T03460122  RH  026%=      5-min Rain = 0
KHA3 150148Z 24011KT 34/12 A2989 RMK A01 T03440122  RH  026%=      5-min Rain = 0
KHA3 150149Z 25011KT 34/12 A2989 RMK A01 T03430124  RH  027%=      5-min Rain = 0
KHA3 150150Z 25012KT 34/13 A2989 RMK A01 T03410126  RH  027%=      5-min Rain = 0
KHA3 150151Z 24010KT 34/13 A2989 RMK A01 T03400128  RH  028%=      5-min Rain = 0
KHA3 150152Z 23011KT 34/13 A2989 RMK A01 T03380128  RH  028%=      5-min Rain = 0
KHA3 150153Z 23010KT 34/13 A2989 RMK A01 T03370129  RH  028%=      5-min Rain = 0
KHA3 150154Z 24009KT 34/13 A2989 RMK A01 T03360129  RH  029%=      5-min Rain = 0
KHA3 150155Z 24008KT 34/13 A2989 RMK A01 T03350129  RH  029%=      5-min Rain = 0
KHA3 150156Z 24010KT 34/13 A2989 RMK A01 T03350129  RH  029%=      5-min Rain = 0
KHA3 150157Z 23009KT 34/13 A2989 RMK A01 T03350129  RH  029%=      5-min Rain = 0
KHA3 150158Z 22010KT 33/13 A2989 RMK A01 T03340128  RH  029%=      5-min Rain = 0
KHA3 150159Z 22013G18KT 34/13 A2989 RMK A01 T03350126  RH  028%=      5-min Rain = 0
KHA3 150200Z 22014KT 34/12 A2988 RMK A01 T03370123  RH  027%=      5-min Rain = 0
KHA3 150201Z 22013KT 34/12 A2988 RMK A01 T03390124  RH  027%=      5-min Rain = 0
KHA3 150202Z 23012KT 34/12 A2989 RMK A01 T03400124  RH  027%=      5-min Rain = 0
KHA3 150203Z 24014KT 34/12 A2989 RMK A01 T03400124  RH  027%=      5-min Rain = 0
KHA3 150204Z 23015KT 34/12 A2989 RMK A01 T03410124  RH  027%=      5-min Rain = 0
KHA3 150205Z 23013KT 34/13 A2989 RMK A01 T03400125  RH  027%=      5-min Rain = 0
KHA3 150206Z 23012KT 34/13 A2988 RMK A01 T03400125  RH  027%=      5-min Rain = 0
KHA3 150207Z 22012KT 34/13 A2988 RMK A01 T03390126  RH  028%=      5-min Rain = 0
KHA3 150208Z 22013G19KT 34/13 A2988 RMK A01 T03380126  RH  028%=      5-min Rain = 0
KHA3 150209Z 22014KT 34/12 A2988 RMK A01 T03370124  RH  027%=      5-min Rain = 0
KHA3 150210Z 23015KT 34/12 A2988 RMK A01 T03400120  RH  026%=      5-min Rain = 0
KHA3 150211Z 24015KT 34/12 A2988 RMK A01 T03420120  RH  026%=      5-min Rain = 0
KHA3 150212Z 25012KT 34/12 A2988 RMK A01 T03430120  RH  026%=      5-min Rain = 0
KHA3 150213Z 25014G19KT 34/12 A2988 RMK A01 T03430121  RH  026%=      5-min Rain = 0
KHA3 150214Z 24017KT 34/12 A2988 RMK A01 T03420120  RH  026%=      5-min Rain = 0
KHA3 150215Z 25015KT 34/12 A2988 RMK A01 T03430121  RH  026%=      5-min Rain = 0
KHA3 150216Z 24015KT 34/12 A2988 RMK A01 T03420121  RH  026%=      5-min Rain = 0
KHA3 150217Z 24018KT 34/12 A2987 RMK A01 T03410123  RH  027%=      5-min Rain = 0
KHA3 150218Z 24016KT 34/12 A2987 RMK A01 T03390124  RH  027%=      5-min Rain = 0
KHA3 150219Z 24017KT 34/13 A2987 RMK A01 T03380125  RH  027%=      5-min Rain = 0
KHA3 150220Z 23015KT 34/13 A2987 RMK A01 T03380125  RH  028%=      5-min Rain = 0
KHA3 150221Z 23015KT 34/13 A2987 RMK A01 T03370125  RH  028%=      5-min Rain = 0
KHA3 150222Z 23016KT 34/12 A2987 RMK A01 T03370124  RH  027%=      5-min Rain = 0
KHA3 150223Z 23013G18KT 34/12 A2987 RMK A01 T03380124  RH  027%=      5-min Rain = 0
KHA3 150224Z 23014KT 34/12 A2987 RMK A01 T03380124  RH  027%=      5-min Rain = 0
KHA3 150225Z 23015KT 34/12 A2987 RMK A01 T03380123  RH  027%=      5-min Rain = 0
KHA3 150226Z 23013G18KT 34/12 A2987 RMK A01 T03380123  RH  027%=      5-min Rain = 0
KHA3 150227Z 23012KT 34/12 A2987 RMK A01 T03390123  RH  027%=      5-min Rain = 0
KHA3 150228Z 23013KT 34/12 A2987 RMK A01 T03390123  RH  027%=      5-min Rain = 0
KHA3 150229Z 24012KT 34/12 A2987 RMK A01 T03390123  RH  027%=      5-min Rain = 0
KHA3 150230Z 24013KT 34/12 A2987 RMK A01 T03390124  RH  027%=      5-min Rain = 0
KHA3 150231Z 24012KT 34/12 A2988 RMK A01 T03390124  RH  027%=      5-min Rain = 0
KHA3 150232Z 24011KT 34/12 A2988 RMK A01 T03380124  RH  027%=      5-min Rain = 0
KHA3 150233Z 24010KT 34/12 A2988 RMK A01 T03380124  RH  027%=      5-min Rain = 0
KHA3 150234Z 22011G17KT 34/12 A2988 RMK A01 T03380120  RH  027%=      5-min Rain = 0
KHA3 150235Z 21013G18KT 34/11 A2988 RMK A01 T03410111  RH  025%=      5-min Rain = 0
KHA3 150236Z 23014G22KT 35/10 A2988 RMK A01 T03490102  RH  022%=      5-min Rain = 0
KHA3 150237Z 24015G21KT 36/10 A2988 RMK A01 T03580101  RH  021%=      5-min Rain = 0
KHA3 150238Z 25011KT 36/10 A2988 RMK A01 T03610102  RH  021%=      5-min Rain = 0
KHA3 150239Z 23010KT 36/11 A2988 RMK A01 T03610105  RH  021%=      5-min Rain = 0
KHA3 150240Z 22010KT 36/11 A2988 RMK A01 T03600106  RH  022%=      5-min Rain = 0
KHA3 150241Z 24009KT 36/11 A2987 RMK A01 T03580106  RH  022%=      5-min Rain = 0
KHA3 150242Z 23008KT 36/10 A2987 RMK A01 T03570104  RH  022%=      5-min Rain = 0
KHA3 150243Z 20007KT 36/11 A2987 RMK A01 T03560107  RH  022%=      5-min Rain = 0
KHA3 150244Z 20009KT 35/11 A2987 RMK A01 T03540108  RH  023%=      5-min Rain = 0
KHA3 150245Z 18008KT 35/11 A2987 RMK A01 T03520109  RH  023%=      5-min Rain = 0
KHA3 150246Z 18008KT 35/11 A2987 RMK A01 T03500110  RH  023%=      5-min Rain = 0
KHA3 150247Z 17010KT 35/11 A2987 RMK A01 T03480111  RH  024%=      5-min Rain = 0
KHA3 150248Z 18009KT 35/11 A2987 RMK A01 T03470112  RH  024%=      5-min Rain = 0
KHA3 150249Z 18008KT 35/11 A2987 RMK A01 T03460111  RH  024%=      5-min Rain = 0
KHA3 150250Z 18009KT 35/11 A2987 RMK A01 T03460111  RH  024%=      5-min Rain = 0
KHA3 150251Z 19008KT 35/11 A2987 RMK A01 T03450111  RH  024%=      5-min Rain = 0
KHA3 150252Z 19007KT 35/11 A2987 RMK A01 T03450110  RH  024%=      5-min Rain = 0
KHA3 150253Z 20006KT 35/11 A2987 RMK A01 T03460109  RH  024%=      5-min Rain = 0
KHA3 150254Z 22006KT 35/11 A2987 RMK A01 T03450110  RH  024%=      5-min Rain = 0
KHA3 150255Z 24005KT 35/11 A2988 RMK A01 T03450109  RH  024%=      5-min Rain = 0
KHA3 150256Z 25006KT 35/11 A2988 RMK A01 T03450109  RH  024%=      5-min Rain = 0
KHA3 150257Z 27005KT 35/11 A2988 RMK A01 T03460111  RH  024%=      5-min Rain = 0
KHA3 150258Z 31005KT 34/11 A2988 RMK A01 T03430111  RH  024%=      5-min Rain = 0
KHA3 150259Z 30004KT 34/11 A2988 RMK A01 T03400113  RH  025%=      5-min Rain = 0
KHA3 150300Z 31005KT 34/11 A2988 RMK A01 T03370112  RH  025%=      5-min Rain = 0
KHA3 150301Z 31005KT 34/11 A2988 RMK A01 T03350111  RH  025%=      5-min Rain = 0
KHA3 150302Z 31006KT 33/11 A2988 RMK A01 T03340110  RH  025%=      5-min Rain = 0
KHA3 150303Z 31007KT 33/11 A2988 RMK A01 T03340109  RH  025%=      5-min Rain = 0
KHA3 150304Z 29007KT 33/11 A2988 RMK A01 T03340109  RH  025%=      5-min Rain = 0
KHA3 150305Z 28006KT 33/11 A2988 RMK A01 T03340109  RH  025%=      5-min Rain = 0
KHA3 150306Z 26006KT 33/11 A2988 RMK A01 T03340109  RH  025%=      5-min Rain = 0
KHA3 150307Z 23005KT 34/11 A2988 RMK A01 T03350109  RH  025%=      5-min Rain = 0
KHA3 150308Z 22005KT 34/11 A2988 RMK A01 T03350109  RH  025%=      5-min Rain = 0
KHA3 150309Z 22005KT 34/11 A2988 RMK A01 T03360110  RH  025%=      5-min Rain = 0
KHA3 150310Z 22005KT 34/11 A2988 RMK A01 T03360110  RH  025%=      5-min Rain = 0
KHA3 150311Z 21005KT 34/11 A2988 RMK A01 T03360110  RH  025%=      5-min Rain = 0
KHA3 150312Z 20006KT 34/11 A2988 RMK A01 T03350111  RH  026%=      5-min Rain = 0
KHA3 150313Z 20007KT 33/11 A2988 RMK A01 T03330111  RH  026%=      5-min Rain = 0
KHA3 150314Z 20008KT 33/11 A2988 RMK A01 T03320109  RH  026%=      5-min Rain = 0
KHA3 150315Z 21011G16KT 34/11 A2988 RMK A01 T03350106  RH  025%=      5-min Rain = 0
KHA3 150316Z 21011KT 34/11 A2988 RMK A01 T03390106  RH  024%=      5-min Rain = 0
KHA3 150317Z 21012KT 34/11 A2988 RMK A01 T03430105  RH  023%=      5-min Rain = 0
KHA3 150318Z 20012KT 35/10 A2988 RMK A01 T03460104  RH  023%=      5-min Rain = 0
KHA3 150319Z 21011KT 35/10 A2988 RMK A01 T03490104  RH  023%=      5-min Rain = 0
KHA3 150320Z 21009KT 35/11 A2988 RMK A01 T03500105  RH  022%=      5-min Rain = 0
KHA3 150321Z 21008KT 35/11 A2988 RMK A01 T03500105  RH  023%=      5-min Rain = 0
KHA3 150322Z 21007KT 35/11 A2988 RMK A01 T03490106  RH  023%=      5-min Rain = 0
KHA3 150323Z 21008KT 35/11 A2988 RMK A01 T03460106  RH  023%=      5-min Rain = 0
KHA3 150324Z 21008KT 35/11 A2988 RMK A01 T03450105  RH  023%=      5-min Rain = 0
KHA3 150325Z 21009KT 34/11 A2988 RMK A01 T03440106  RH  023%=      5-min Rain = 0
KHA3 150326Z 22009KT 34/11 A2988 RMK A01 T03430107  RH  024%=      5-min Rain = 0
KHA3 150327Z 22008KT 34/11 A2988 RMK A01 T03420107  RH  024%=      5-min Rain = 0
KHA3 150328Z 23009KT 34/11 A2988 RMK A01 T03410107  RH  024%=      5-min Rain = 0
KHA3 150329Z 23009KT 34/11 A2988 RMK A01 T03400107  RH  024%=      5-min Rain = 0
KHA3 150330Z 23010KT 34/11 A2988 RMK A01 T03390108  RH  024%=      5-min Rain = 0
KHA3 150331Z 23008KT 34/11 A2988 RMK A01 T03380108  RH  025%=      5-min Rain = 0
KHA3 150332Z 23010KT 34/11 A2989 RMK A01 T03380108  RH  025%=      5-min Rain = 0
KHA3 150333Z 24009KT 34/11 A2989 RMK A01 T03390108  RH  024%=      5-min Rain = 0
KHA3 150334Z 23008KT 34/11 A2989 RMK A01 T03390108  RH  024%=      5-min Rain = 0
KHA3 150335Z 23009KT 34/11 A2989 RMK A01 T03390108  RH  025%=      5-min Rain = 0
KHA3 150336Z 23008KT 34/11 A2989 RMK A01 T03380108  RH  025%=      5-min Rain = 0
KHA3 150337Z 23008KT 34/11 A2989 RMK A01 T03380108  RH  025%=      5-min Rain = 0
KHA3 150338Z 23009KT 34/11 A2989 RMK A01 T03390106  RH  024%=      5-min Rain = 0
KHA3 150339Z 24007KT 34/11 A2989 RMK A01 T03410106  RH  024%=      5-min Rain = 0
KHA3 150340Z 24008KT 34/11 A2989 RMK A01 T03430107  RH  024%=      5-min Rain = 0
KHA3 150341Z 24007KT 34/11 A2989 RMK A01 T03430107  RH  024%=      5-min Rain = 0
KHA3 150342Z 23007KT 34/11 A2989 RMK A01 T03430107  RH  024%=      5-min Rain = 0
KHA3 150343Z 24007KT 34/11 A2989 RMK A01 T03430107  RH  024%=      5-min Rain = 0
KHA3 150344Z 24006KT 34/11 A2989 RMK A01 T03430107  RH  024%=      5-min Rain = 0
KHA3 150345Z 26005KT 34/11 A2989 RMK A01 T03420108  RH  024%=      5-min Rain = 0
KHA3 150346Z 27004KT 34/11 A2989 RMK A01 T03390108  RH  024%=      5-min Rain = 0
KHA3 150347Z 28005KT 34/11 A2989 RMK A01 T03370107  RH  025%=      5-min Rain = 0
KHA3 150348Z 31004KT 34/11 A2989 RMK A01 T03350109  RH  025%=      5-min Rain = 0
KHA3 150349Z 32003KT 33/11 A2989 RMK A01 T03310109  RH  026%=      5-min Rain = 0
KHA3 150350Z 32003KT 33/11 A2989 RMK A01 T03280109  RH  026%=      5-min Rain = 0
KHA3 150351Z 33004KT 33/11 A2989 RMK A01 T03270110  RH  027%=      5-min Rain = 0
KHA3 150352Z 33005KT 32/11 A2989 RMK A01 T03240110  RH  027%=      5-min Rain = 0
KHA3 150353Z 33004KT 32/11 A2989 RMK A01 T03220111  RH  028%=      5-min Rain = 0
KHA3 150354Z 33004KT 32/11 A2989 RMK A01 T03190111  RH  028%=      5-min Rain = 0
KHA3 150355Z 33004KT 32/11 A2989 RMK A01 T03180111  RH  028%=      5-min Rain = 0
KHA3 150356Z 32004KT 32/11 A2989 RMK A01 T03160111  RH  028%=      5-min Rain = 0
KHA3 150357Z 31004KT 32/11 A2989 RMK A01 T03160111  RH  028%=      5-min Rain = 0
KHA3 150358Z 31003KT 32/11 A299 RMK A01 T03160111  RH  028%=      5-min Rain = 0
KHA3 150359Z 31003KT 32/11 A299 RMK A01 T03160111  RH  028%=      5-min Rain = 0
KHA3 150400Z 32003KT 32/11 A299 RMK A01 T03160111  RH  028%=      5-min Rain = 0
KHA3 150401Z 32004KT 32/11 A299 RMK A01 T03170111  RH  028%=      5-min Rain = 0
KHA3 150402Z 33004KT 32/11 A299 RMK A01 T03170110  RH  028%=      5-min Rain = 0
KHA3 150403Z 33003KT 32/11 A299 RMK A01 T03180111  RH  028%=      5-min Rain = 0
KHA3 150404Z 32003KT 32/11 A299 RMK A01 T03180111  RH  028%=      5-min Rain = 0
KHA3 150405Z 32003KT 32/11 A299 RMK A01 T03180111  RH  028%=      5-min Rain = 0
KHA3 150406Z 31003KT 32/11 A299 RMK A01 T03180111  RH  028%=      5-min Rain = 0
KHA3 150407Z 31004KT 32/11 A299 RMK A01 T03180110  RH  028%=      5-min Rain = 0
KHA3 150408Z 29003KT 32/11 A299 RMK A01 T03180110  RH  028%=      5-min Rain = 0
KHA3 150409Z 31004KT 32/11 A299 RMK A01 T03190109  RH  027%=      5-min Rain = 0
KHA3 150410Z 33004KT 32/11 A299 RMK A01 T03220110  RH  027%=      5-min Rain = 0
KHA3 150411Z 34004KT 32/11 A299 RMK A01 T03240110  RH  027%=      5-min Rain = 0
KHA3 150412Z 34004KT 33/11 A299 RMK A01 T03250110  RH  027%=      5-min Rain = 0
KHA3 150413Z 33003KT 32/11 A299 RMK A01 T03240110  RH  027%=      5-min Rain = 0
KHA3 150414Z 32003KT 32/11 A299 RMK A01 T03230109  RH  027%=      5-min Rain = 0
KHA3 150415Z 33004KT 32/11 A299 RMK A01 T03240109  RH  027%=      5-min Rain = 0
KHA3 150416Z 33004KT 32/11 A299 RMK A01 T03240109  RH  027%=      5-min Rain = 0
KHA3 150417Z 33003KT 32/11 A299 RMK A01 T03240110  RH  027%=      5-min Rain = 0
KHA3 150418Z 33004KT 32/11 A299 RMK A01 T03240110  RH  027%=      5-min Rain = 0
KHA3 150419Z 34003KT 32/11 A299 RMK A01 T03240109  RH  027%=      5-min Rain = 0
KHA3 150420Z 34003KT 32/11 A299 RMK A01 T03240109  RH  027%=      5-min Rain = 0
KHA3 150421Z 35003KT 32/11 A299 RMK A01 T03240110  RH  027%=      5-min Rain = 0
KHA3 150422Z 35003KT 32/11 A299 RMK A01 T03240110  RH  027%=      5-min Rain = 0
KHA3 150423Z 36003KT 32/11 A299 RMK A01 T03230109  RH  027%=      5-min Rain = 0
KHA3 150424Z 01004KT 32/11 A299 RMK A01 T03220109  RH  027%=      5-min Rain = 0
KHA3 150425Z 02004KT 32/11 A2991 RMK A01 T03220109  RH  027%=      5-min Rain = 0
KHA3 150426Z 03004KT 32/11 A2991 RMK A01 T03220109  RH  027%=      5-min Rain = 0
KHA3 150427Z 03004KT 32/11 A2991 RMK A01 T03200110  RH  027%=      5-min Rain = 0
KHA3 150428Z 04004KT 32/11 A2991 RMK A01 T03180110  RH  028%=      5-min Rain = 0
KHA3 150429Z 04005KT 32/11 A2991 RMK A01 T03150109  RH  028%=      5-min Rain = 0
KHA3 150430Z 04005KT 31/11 A2991 RMK A01 T03130109  RH  028%=      5-min Rain = 0
KHA3 150431Z 05005KT 31/11 A2991 RMK A01 T03130110  RH  029%=      5-min Rain = 0
KHA3 150432Z 04006KT 31/11 A2991 RMK A01 T03120110  RH  029%=      5-min Rain = 0
KHA3 150433Z 04006KT 31/11 A2991 RMK A01 T03100110  RH  029%=      5-min Rain = 0
KHA3 150434Z 04006KT 31/11 A2992 RMK A01 T03090111  RH  029%=      5-min Rain = 0
KHA3 150435Z 05006KT 31/11 A2992 RMK A01 T03090111  RH  030%=      5-min Rain = 0
KHA3 150436Z 05007KT 31/11 A2992 RMK A01 T03080112  RH  030%=      5-min Rain = 0
KHA3 150437Z 06007KT 31/11 A2992 RMK A01 T03070111  RH  030%=      5-min Rain = 0
KHA3 150438Z 05007KT 31/11 A2991 RMK A01 T03060112  RH  030%=      5-min Rain = 0
KHA3 150439Z 05007KT 31/11 A2991 RMK A01 T03050112  RH  030%=      5-min Rain = 0
KHA3 150440Z 06006KT 30/11 A2991 RMK A01 T03040112  RH  031%=      5-min Rain = 0
KHA3 150441Z 06006KT 30/11 A2991 RMK A01 T03040112  RH  031%=      5-min Rain = 0
KHA3 150442Z 06006KT 30/11 A2991 RMK A01 T03030113  RH  031%=      5-min Rain = 0
KHA3 150443Z 06006KT 30/11 A2991 RMK A01 T03030114  RH  031%=      5-min Rain = 0
KHA3 150444Z 07006KT 30/11 A2992 RMK A01 T03020113  RH  031%=      5-min Rain = 0
KHA3 150445Z 08006KT 30/11 A2992 RMK A01 T03010114  RH  031%=      5-min Rain = 0
KHA3 150446Z 08006KT 30/11 A2992 RMK A01 T03000114  RH  032%=      5-min Rain = 0
KHA3 150447Z 08006KT 30/11 A2992 RMK A01 T02980114  RH  032%=      5-min Rain = 0
KHA3 150448Z 07008KT 30/11 A2992 RMK A01 T02970113  RH  032%=      5-min Rain = 0
KHA3 150449Z 07007KT 30/11 A2992 RMK A01 T02970113  RH  032%=      5-min Rain = 0
KHA3 150450Z 06006KT 30/11 A2992 RMK A01 T02970113  RH  032%=      5-min Rain = 0
KHA3 150451Z 06007KT 30/11 A2992 RMK A01 T02970113  RH  032%=      5-min Rain = 0
KHA3 150452Z 05007KT 30/11 A2992 RMK A01 T02970113  RH  032%=      5-min Rain = 0
KHA3 150453Z 06007KT 30/11 A2992 RMK A01 T02970113  RH  032%=      5-min Rain = 0
KHA3 150454Z 06008KT 30/11 A2992 RMK A01 T02970113  RH  032%=      5-min Rain = 0
KHA3 150455Z 06008KT 30/11 A2992 RMK A01 T02970113  RH  032%=      5-min Rain = 0
KHA3 150456Z 06007KT 30/11 A2992 RMK A01 T02960113  RH  032%=      5-min Rain = 0
KHA3 150457Z 06006KT 30/11 A2992 RMK A01 T02960113  RH  032%=      5-min Rain = 0
KHA3 150458Z 06006KT 30/11 A2992 RMK A01 T02970113  RH  032%=      5-min Rain = 0
KHA3 150459Z 07005KT 30/11 A2993 RMK A01 T02970113  RH  032%=      5-min Rain = 0

Page generated in 0.0913 seconds.